Observation data for Endee on 12/13/2019      Previous  Date       Current Mesonet Observations  Soil Data  Daily Summary Page  Observations in Plain Language
KEN1 130600Z 25006KT M02/M05 A30 RMK A01 T10221045  RH  084%=      5-min Rain = 0
KEN1 130601Z 25006KT M02/M04 A30 RMK A01 T10191043  RH  084%=      5-min Rain = 0
KEN1 130602Z 26006KT M02/M04 A30 RMK A01 T10171043  RH  083%=      5-min Rain = 0
KEN1 130603Z 26006KT M02/M04 A30 RMK A01 T10161043  RH  082%=      5-min Rain = 0
KEN1 130604Z 26008KT M02/M04 A30 RMK A01 T10161043  RH  082%=      5-min Rain = 0
KEN1 130605Z 26009KT M02/M04 A30 RMK A01 T10161042  RH  082%=      5-min Rain = 0
KEN1 130606Z 26010KT M01/M04 A30 RMK A01 T10141040  RH  083%=      5-min Rain = 0
KEN1 130607Z 26009KT M01/M04 A30 RMK A01 T10141040  RH  082%=      5-min Rain = 0
KEN1 130608Z 26009KT M01/M04 A30 RMK A01 T10131040  RH  082%=      5-min Rain = 0
KEN1 130609Z 26009KT M01/M04 A30 RMK A01 T10121040  RH  081%=      5-min Rain = 0
KEN1 130610Z 26008KT M01/M04 A30 RMK A01 T10121041  RH  081%=      5-min Rain = 0
KEN1 130611Z 27007KT M01/M04 A30 RMK A01 T10111041  RH  080%=      5-min Rain = 0
KEN1 130612Z 26008KT M01/M04 A30 RMK A01 T10111041  RH  080%=      5-min Rain = 0
KEN1 130613Z 26009KT M01/M04 A30 RMK A01 T10111041  RH  080%=      5-min Rain = 0
KEN1 130614Z 26008KT M01/M04 A30 RMK A01 T10111041  RH  080%=      5-min Rain = 0
KEN1 130615Z 26009KT M01/M04 A30 RMK A01 T10101041  RH  080%=      5-min Rain = 0
KEN1 130616Z 27008KT M01/M04 A30 RMK A01 T10081040  RH  079%=      5-min Rain = 0
KEN1 130617Z 27007KT M01/M04 A30 RMK A01 T10061040  RH  078%=      5-min Rain = 0
KEN1 130618Z 27008KT M01/M04 A30 RMK A01 T10051040  RH  077%=      5-min Rain = 0
KEN1 130619Z 27008KT M00/M04 A30 RMK A01 T10041041  RH  076%=      5-min Rain = 0
KEN1 130620Z 27008KT M00/M04 A30 RMK A01 T10031041  RH  076%=      5-min Rain = 0
KEN1 130621Z 27006KT M00/M04 A30 RMK A01 T10021041  RH  075%=      5-min Rain = 0
KEN1 130622Z 27006KT M00/M04 A30 RMK A01 T10021041  RH  075%=      5-min Rain = 0
KEN1 130623Z 27006KT M00/M04 A30 RMK A01 T10011041  RH  075%=      5-min Rain = 0
KEN1 130624Z 27006KT M00/M04 A30 RMK A01 T10011041  RH  074%=      5-min Rain = 0
KEN1 130625Z 27005KT M00/M04 A30 RMK A01 T10011042  RH  074%=      5-min Rain = 0
KEN1 130626Z 26005KT M00/M04 A30 RMK A01 T10021042  RH  074%=      5-min Rain = 0
KEN1 130627Z 26006KT M00/M04 A30 RMK A01 T10021042  RH  074%=      5-min Rain = 0
KEN1 130628Z 27005KT M00/M04 A30 RMK A01 T10021042  RH  074%=      5-min Rain = 0
KEN1 130629Z 27006KT M00/M04 A30 RMK A01 T10031042  RH  075%=      5-min Rain = 0
KEN1 130630Z 27007KT M00/M04 A30 RMK A01 T10031042  RH  075%=      5-min Rain = 0
KEN1 130631Z 27006KT M00/M04 A30 RMK A01 T10021042  RH  075%=      5-min Rain = 0
KEN1 130632Z 27005KT M00/M04 A30 RMK A01 T10011041  RH  074%=      5-min Rain = 0
KEN1 130633Z 27006KT M00/M04 A3001 RMK A01 T10011042  RH  074%=      5-min Rain = 0
KEN1 130634Z 27006KT M00/M04 A30 RMK A01 T10011042  RH  074%=      5-min Rain = 0
KEN1 130635Z 26006KT 00/04 A30 RMK A01 T00-00-42  RH  074%=      5-min Rain = 0
KEN1 130636Z 26006KT 00/04 A30 RMK A01 T00-00-42  RH  074%=      5-min Rain = 0
KEN1 130637Z 26005KT M00/M04 A30 RMK A01 T10011042  RH  074%=      5-min Rain = 0
KEN1 130638Z 27005KT M00/M04 A30 RMK A01 T10011042  RH  074%=      5-min Rain = 0
KEN1 130639Z 27004KT M00/M04 A30 RMK A01 T10011042  RH  074%=      5-min Rain = 0
KEN1 130640Z 26004KT M00/M04 A30 RMK A01 T10011042  RH  074%=      5-min Rain = 0
KEN1 130641Z 26004KT M00/M04 A30 RMK A01 T10011043  RH  074%=      5-min Rain = 0
KEN1 130642Z 26003KT M00/M04 A30 RMK A01 T10021043  RH  074%=      5-min Rain = 0
KEN1 130643Z 25003KT M00/M04 A30 RMK A01 T10031044  RH  074%=      5-min Rain = 0
KEN1 130644Z 25004KT M00/M04 A30 RMK A01 T10041044  RH  074%=      5-min Rain = 0
KEN1 130645Z 25004KT M00/M04 A30 RMK A01 T10041044  RH  074%=      5-min Rain = 0
KEN1 130646Z 25005KT M00/M04 A30 RMK A01 T10041044  RH  074%=      5-min Rain = 0
KEN1 130647Z 25005KT M00/M04 A30 RMK A01 T10041044  RH  074%=      5-min Rain = 0
KEN1 130648Z 25006KT M00/M04 A30 RMK A01 T10031044  RH  074%=      5-min Rain = 0
KEN1 130649Z 25006KT M00/M04 A30 RMK A01 T10021044  RH  073%=      5-min Rain = 0
KEN1 130650Z 26006KT M00/M04 A30 RMK A01 T10021043  RH  073%=      5-min Rain = 0
KEN1 130651Z 26006KT M00/M04 A30 RMK A01 T10021043  RH  074%=      5-min Rain = 0
KEN1 130652Z 26006KT 00/04 A30 RMK A01 T00-00-41  RH  074%=      5-min Rain = 0
KEN1 130653Z 25006KT 00/M04 A30 RMK A01 T00021041  RH  073%=      5-min Rain = 0
KEN1 130654Z 25007KT 00/M04 A3001 RMK A01 T00021042  RH  073%=      5-min Rain = 0
KEN1 130655Z 25008KT 00/M04 A3001 RMK A01 T00011042  RH  073%=      5-min Rain = 0
KEN1 130656Z 25009KT 00/M04 A30 RMK A01 T00011042  RH  073%=      5-min Rain = 0
KEN1 130657Z 25009KT 00/M04 A30 RMK A01 T00021042  RH  073%=      5-min Rain = 0
KEN1 130658Z 25008KT 00/M04 A30 RMK A01 T00031041  RH  072%=      5-min Rain = 0
KEN1 130659Z 25009KT 00/M04 A30 RMK A01 T00031042  RH  072%=      5-min Rain = 0
KEN1 130700Z 25009KT 00/M04 A30 RMK A01 T00021042  RH  072%=      5-min Rain = 0
KEN1 130701Z 24008KT 00/M04 A30 RMK A01 T00021042  RH  073%=      5-min Rain = 0
KEN1 130702Z 24008KT 00/M04 A30 RMK A01 T00021041  RH  073%=      5-min Rain = 0
KEN1 130703Z 24007KT 00/M04 A30 RMK A01 T00011041  RH  073%=      5-min Rain = 0
KEN1 130704Z 24007KT 00/M04 A30 RMK A01 T00011041  RH  073%=      5-min Rain = 0
KEN1 130705Z 25008KT 00/04 A30 RMK A01 T00000-41  RH  074%=      5-min Rain = 0
KEN1 130706Z 25007KT 00/M04 A2999 RMK A01 T00011041  RH  074%=      5-min Rain = 0
KEN1 130707Z 24007KT 00/M04 A2999 RMK A01 T00011041  RH  074%=      5-min Rain = 0
KEN1 130708Z 24007KT 00/M04 A2999 RMK A01 T00011041  RH  073%=      5-min Rain = 0
KEN1 130709Z 24007KT 00/M04 A2999 RMK A01 T00011041  RH  073%=      5-min Rain = 0
KEN1 130710Z 24007KT 00/M04 A2999 RMK A01 T00011041  RH  074%=      5-min Rain = 0
KEN1 130711Z 24006KT 00/M04 A2999 RMK A01 T00011041  RH  074%=      5-min Rain = 0
KEN1 130712Z 24006KT 00/M04 A2999 RMK A01 T00011041  RH  073%=      5-min Rain = 0
KEN1 130713Z 24007KT 00/M04 A2999 RMK A01 T00011042  RH  073%=      5-min Rain = 0
KEN1 130714Z 24007KT 00/M04 A2999 RMK A01 T00011042  RH  073%=      5-min Rain = 0
KEN1 130715Z 23007KT 00/M04 A2999 RMK A01 T00011042  RH  073%=      5-min Rain = 0
KEN1 130716Z 24008KT 00/04 A2999 RMK A01 T00-00-43  RH  073%=      5-min Rain = 0
KEN1 130717Z 24007KT M00/M04 A2999 RMK A01 T10011043  RH  073%=      5-min Rain = 0
KEN1 130718Z 24008KT M00/M04 A2998 RMK A01 T10011043  RH  074%=      5-min Rain = 0
KEN1 130719Z 24008KT M00/M04 A2998 RMK A01 T10011043  RH  074%=      5-min Rain = 0
KEN1 130720Z 23009KT M00/M04 A2998 RMK A01 T10011043  RH  074%=      5-min Rain = 0
KEN1 130721Z 23009KT M00/M04 A2998 RMK A01 T10021043  RH  074%=      5-min Rain = 0
KEN1 130722Z 24009KT M00/M04 A2998 RMK A01 T10031043  RH  074%=      5-min Rain = 0
KEN1 130723Z 24009KT M00/M04 A2998 RMK A01 T10031043  RH  074%=      5-min Rain = 0
KEN1 130724Z 23008KT M00/M04 A2998 RMK A01 T10031043  RH  074%=      5-min Rain = 0
KEN1 130725Z 23008KT M00/M04 A2998 RMK A01 T10031043  RH  074%=      5-min Rain = 0
KEN1 130726Z 23007KT M00/M04 A2998 RMK A01 T10031042  RH  075%=      5-min Rain = 0
KEN1 130727Z 23006KT M00/M04 A2998 RMK A01 T10031043  RH  075%=      5-min Rain = 0
KEN1 130728Z 23007KT M00/M04 A2998 RMK A01 T10041043  RH  075%=      5-min Rain = 0
KEN1 130729Z 24007KT M01/M04 A2998 RMK A01 T10051043  RH  075%=      5-min Rain = 0
KEN1 130730Z 24007KT M01/M04 A2998 RMK A01 T10051044  RH  075%=      5-min Rain = 0
KEN1 130731Z 25007KT M01/M04 A2998 RMK A01 T10051043  RH  076%=      5-min Rain = 0
KEN1 130732Z 25007KT M01/M04 A2998 RMK A01 T10051043  RH  075%=      5-min Rain = 0
KEN1 130733Z 24007KT M01/M04 A2998 RMK A01 T10051043  RH  075%=      5-min Rain = 0
KEN1 130734Z 24007KT M01/M04 A2998 RMK A01 T10051044  RH  075%=      5-min Rain = 0
KEN1 130735Z 25008KT M01/M04 A2998 RMK A01 T10051044  RH  075%=      5-min Rain = 0
KEN1 130736Z 24007KT M01/M05 A2998 RMK A01 T10071045  RH  075%=      5-min Rain = 0
KEN1 130737Z 24008KT M01/M05 A2998 RMK A01 T10081045  RH  076%=      5-min Rain = 0
KEN1 130738Z 24007KT M01/M05 A2998 RMK A01 T10081045  RH  076%=      5-min Rain = 0
KEN1 130739Z 25007KT M01/M05 A2998 RMK A01 T10091045  RH  076%=      5-min Rain = 0
KEN1 130740Z 25007KT M01/M05 A2998 RMK A01 T10091045  RH  077%=      5-min Rain = 0
KEN1 130741Z 25007KT M01/M05 A2998 RMK A01 T10091045  RH  077%=      5-min Rain = 0
KEN1 130742Z 25008KT M01/M05 A2998 RMK A01 T10091045  RH  077%=      5-min Rain = 0
KEN1 130743Z 25009KT M01/M04 A2998 RMK A01 T10091044  RH  077%=      5-min Rain = 0
KEN1 130744Z 25009KT M01/M05 A2998 RMK A01 T10101045  RH  077%=      5-min Rain = 0
KEN1 130745Z 25009KT M01/M05 A2998 RMK A01 T10101045  RH  077%=      5-min Rain = 0
KEN1 130746Z 25009KT M01/M05 A2998 RMK A01 T10111045  RH  077%=      5-min Rain = 0
KEN1 130747Z 25008KT M01/M05 A2998 RMK A01 T10111045  RH  078%=      5-min Rain = 0
KEN1 130748Z 25008KT M01/M05 A2998 RMK A01 T10121045  RH  078%=      5-min Rain = 0
KEN1 130749Z 26008KT M01/M05 A2998 RMK A01 T10121045  RH  078%=      5-min Rain = 0
KEN1 130750Z 26007KT M01/M05 A2998 RMK A01 T10131045  RH  079%=      5-min Rain = 0
KEN1 130751Z 26007KT M01/M05 A2998 RMK A01 T10131045  RH  079%=      5-min Rain = 0
KEN1 130752Z 26007KT M01/M05 A2998 RMK A01 T10131045  RH  079%=      5-min Rain = 0
KEN1 130753Z 26007KT M01/M05 A2998 RMK A01 T10131045  RH  079%=      5-min Rain = 0
KEN1 130754Z 26007KT M01/M05 A2998 RMK A01 T10141045  RH  079%=      5-min Rain = 0
KEN1 130755Z 27007KT M01/M05 A2998 RMK A01 T10141045  RH  079%=      5-min Rain = 0
KEN1 130756Z 27007KT M01/M05 A2998 RMK A01 T10141045  RH  079%=      5-min Rain = 0
KEN1 130757Z 26007KT M01/M05 A2998 RMK A01 T10141045  RH  079%=      5-min Rain = 0
KEN1 130758Z 26008KT M01/M05 A2998 RMK A01 T10141045  RH  079%=      5-min Rain = 0
KEN1 130759Z 26008KT M01/M04 A2999 RMK A01 T10111043  RH  079%=      5-min Rain = 0
KEN1 130800Z 27007KT M01/M04 A2999 RMK A01 T10101043  RH  078%=      5-min Rain = 0
KEN1 130801Z 27007KT M01/M04 A2999 RMK A01 T10101044  RH  078%=      5-min Rain = 0
KEN1 130802Z 27007KT M01/M04 A2999 RMK A01 T10101044  RH  078%=      5-min Rain = 0
KEN1 130803Z 27007KT M01/M04 A2999 RMK A01 T10101044  RH  078%=      5-min Rain = 0
KEN1 130804Z 27006KT M01/M05 A2999 RMK A01 T10111045  RH  078%=      5-min Rain = 0
KEN1 130805Z 27007KT M01/M05 A2999 RMK A01 T10101045  RH  078%=      5-min Rain = 0
KEN1 130806Z 26007KT M01/M05 A2999 RMK A01 T10101045  RH  077%=      5-min Rain = 0
KEN1 130807Z 26007KT M01/M05 A2999 RMK A01 T10101045  RH  077%=      5-min Rain = 0
KEN1 130808Z 26007KT M01/M05 A2999 RMK A01 T10091045  RH  076%=      5-min Rain = 0
KEN1 130809Z 26007KT M01/M05 A2999 RMK A01 T10091046  RH  076%=      5-min Rain = 0
KEN1 130810Z 26008KT M01/M05 A2999 RMK A01 T10091046  RH  076%=      5-min Rain = 0
KEN1 130811Z 26008KT M01/M05 A2999 RMK A01 T10091046  RH  076%=      5-min Rain = 0
KEN1 130812Z 25008KT M01/M05 A2999 RMK A01 T10091046  RH  076%=      5-min Rain = 0
KEN1 130813Z 25008KT M01/M05 A2999 RMK A01 T10091046  RH  076%=      5-min Rain = 0
KEN1 130814Z 25009KT M01/M05 A2999 RMK A01 T10091046  RH  076%=      5-min Rain = 0
KEN1 130815Z 25009KT M01/M05 A2999 RMK A01 T10091046  RH  076%=      5-min Rain = 0
KEN1 130816Z 25008KT M01/M04 A2999 RMK A01 T10081044  RH  077%=      5-min Rain = 0
KEN1 130817Z 25008KT M01/M04 A2999 RMK A01 T10071044  RH  076%=      5-min Rain = 0
KEN1 130818Z 25008KT M01/M04 A2999 RMK A01 T10061044  RH  076%=      5-min Rain = 0
KEN1 130819Z 25008KT M01/M04 A2999 RMK A01 T10071044  RH  076%=      5-min Rain = 0
KEN1 130820Z 25007KT M01/M05 A2999 RMK A01 T10081045  RH  076%=      5-min Rain = 0
KEN1 130821Z 25007KT M01/M05 A2999 RMK A01 T10091045  RH  076%=      5-min Rain = 0
KEN1 130822Z 25006KT M01/M05 A2999 RMK A01 T10101046  RH  077%=      5-min Rain = 0
KEN1 130823Z 25006KT M01/M05 A2999 RMK A01 T10101046  RH  077%=      5-min Rain = 0
KEN1 130824Z 25006KT M01/M05 A2999 RMK A01 T10101046  RH  077%=      5-min Rain = 0
KEN1 130825Z 25005KT M01/M05 A2999 RMK A01 T10091046  RH  076%=      5-min Rain = 0
KEN1 130826Z 25006KT M01/M05 A2999 RMK A01 T10081045  RH  076%=      5-min Rain = 0
KEN1 130827Z 26006KT M01/M05 A2999 RMK A01 T10051045  RH  075%=      5-min Rain = 0
KEN1 130828Z 25005KT M00/M05 A2999 RMK A01 T10031045  RH  074%=      5-min Rain = 0
KEN1 130829Z 24005KT M00/M05 A2999 RMK A01 T10021045  RH  073%=      5-min Rain = 0
KEN1 130830Z 25005KT M00/M05 A2999 RMK A01 T10021046  RH  072%=      5-min Rain = 0
KEN1 130831Z 25006KT M00/M05 A2999 RMK A01 T10031046  RH  072%=      5-min Rain = 0
KEN1 130832Z 25007KT M00/M05 A2999 RMK A01 T10011045  RH  072%=      5-min Rain = 0
KEN1 130833Z 25006KT 00/M04 A2999 RMK A01 T00041043  RH  071%=      5-min Rain = 0
KEN1 130834Z 26005KT 01/M04 A2999 RMK A01 T00071043  RH  069%=      5-min Rain = 0
KEN1 130835Z 25005KT 01/M04 A2999 RMK A01 T00081044  RH  068%=      5-min Rain = 0
KEN1 130836Z 25005KT 01/M04 A2999 RMK A01 T00091044  RH  068%=      5-min Rain = 0
KEN1 130837Z 25006KT 01/M05 A2998 RMK A01 T00081045  RH  068%=      5-min Rain = 0
KEN1 130838Z 25005KT 01/M05 A2998 RMK A01 T00081045  RH  068%=      5-min Rain = 0
KEN1 130839Z 26006KT 01/M05 A2998 RMK A01 T00081045  RH  068%=      5-min Rain = 0
KEN1 130840Z 25006KT 01/M05 A2998 RMK A01 T00081045  RH  068%=      5-min Rain = 0
KEN1 130841Z 26006KT 01/M05 A2999 RMK A01 T00091045  RH  067%=      5-min Rain = 0
KEN1 130842Z 25005KT 01/M04 A2998 RMK A01 T00111044  RH  067%=      5-min Rain = 0
KEN1 130843Z 26006KT 01/M04 A2998 RMK A01 T00121044  RH  066%=      5-min Rain = 0
KEN1 130844Z 26006KT 01/M04 A2999 RMK A01 T00131043  RH  066%=      5-min Rain = 0
KEN1 130845Z 25007KT 01/M04 A2999 RMK A01 T00141043  RH  066%=      5-min Rain = 0
KEN1 130846Z 26007KT 02/M04 A2999 RMK A01 T00151042  RH  066%=      5-min Rain = 0
KEN1 130847Z 26006KT 02/M04 A2999 RMK A01 T00171042  RH  065%=      5-min Rain = 0
KEN1 130848Z 27006KT 02/M04 A2999 RMK A01 T00191042  RH  064%=      5-min Rain = 0
KEN1 130849Z 27005KT 02/M04 A2999 RMK A01 T00191043  RH  064%=      5-min Rain = 0
KEN1 130850Z 26003KT 02/M04 A2999 RMK A01 T00201043  RH  063%=      5-min Rain = 0
KEN1 130851Z 26004KT 02/M04 A2999 RMK A01 T00201043  RH  063%=      5-min Rain = 0
KEN1 130852Z 25003KT 02/M04 A2999 RMK A01 T00201043  RH  063%=      5-min Rain = 0
KEN1 130853Z 25004KT 02/M04 A2999 RMK A01 T00201044  RH  063%=      5-min Rain = 0
KEN1 130854Z 25005KT 02/M04 A2999 RMK A01 T00201044  RH  063%=      5-min Rain = 0
KEN1 130855Z 24005KT 02/M04 A2999 RMK A01 T00201044  RH  062%=      5-min Rain = 0
KEN1 130856Z 25006KT 02/M04 A2998 RMK A01 T00221044  RH  062%=      5-min Rain = 0
KEN1 130857Z 25006KT 02/M04 A2998 RMK A01 T00241043  RH  061%=      5-min Rain = 0
KEN1 130858Z 25004KT 03/M04 A2998 RMK A01 T00251043  RH  061%=      5-min Rain = 0
KEN1 130859Z 25005KT 03/M04 A2998 RMK A01 T00251043  RH  061%=      5-min Rain = 0
KEN1 130900Z 25005KT 03/M04 A2998 RMK A01 T00251044  RH  060%=      5-min Rain = 0
KEN1 130901Z 24005KT 03/M04 A2998 RMK A01 T00251044  RH  060%=      5-min Rain = 0
KEN1 130902Z 24006KT 02/M04 A2998 RMK A01 T00241044  RH  061%=      5-min Rain = 0
KEN1 130903Z 24005KT 02/M04 A2998 RMK A01 T00241044  RH  061%=      5-min Rain = 0
KEN1 130904Z 24006KT 02/M04 A2998 RMK A01 T00231044  RH  061%=      5-min Rain = 0
KEN1 130905Z 24005KT 02/M04 A2998 RMK A01 T00241044  RH  061%=      5-min Rain = 0
KEN1 130906Z 24005KT 02/M04 A2998 RMK A01 T00241044  RH  061%=      5-min Rain = 0
KEN1 130907Z 24005KT 02/M05 A2998 RMK A01 T00211045  RH  061%=      5-min Rain = 0
KEN1 130908Z 24006KT 02/M05 A2998 RMK A01 T00191045  RH  063%=      5-min Rain = 0
KEN1 130909Z 24006KT 02/M05 A2998 RMK A01 T00171045  RH  064%=      5-min Rain = 0
KEN1 130910Z 24006KT 02/M05 A2998 RMK A01 T00151045  RH  064%=      5-min Rain = 0
KEN1 130911Z 24006KT 02/M04 A2998 RMK A01 T00151044  RH  065%=      5-min Rain = 0
KEN1 130912Z 24006KT 02/M04 A2998 RMK A01 T00171044  RH  064%=      5-min Rain = 0
KEN1 130913Z 23006KT 02/M04 A2997 RMK A01 T00191043  RH  063%=      5-min Rain = 0
KEN1 130914Z 24006KT 02/M04 A2997 RMK A01 T00211043  RH  063%=      5-min Rain = 0
KEN1 130915Z 24006KT 02/M04 A2997 RMK A01 T00221043  RH  062%=      5-min Rain = 0
KEN1 130916Z 23005KT 02/M04 A2997 RMK A01 T00241042  RH  062%=      5-min Rain = 0
KEN1 130917Z 23006KT 02/M04 A2997 RMK A01 T00241042  RH  062%=      5-min Rain = 0
KEN1 130918Z 23006KT 02/M04 A2997 RMK A01 T00221043  RH  062%=      5-min Rain = 0
KEN1 130919Z 23007KT 02/M04 A2997 RMK A01 T00221043  RH  062%=      5-min Rain = 0
KEN1 130920Z 23007KT 03/M04 A2997 RMK A01 T00251042  RH  061%=      5-min Rain = 0
KEN1 130921Z 23006KT 03/M04 A2997 RMK A01 T00261042  RH  061%=      5-min Rain = 0
KEN1 130922Z 25005KT 03/M04 A2997 RMK A01 T00261042  RH  061%=      5-min Rain = 0
KEN1 130923Z 26005KT 03/M04 A2997 RMK A01 T00251042  RH  061%=      5-min Rain = 0
KEN1 130924Z 26006KT 03/M04 A2997 RMK A01 T00261042  RH  061%=      5-min Rain = 0
KEN1 130925Z 26005KT 03/M04 A2997 RMK A01 T00291042  RH  060%=      5-min Rain = 0
KEN1 130926Z 25004KT 03/M04 A2997 RMK A01 T00321042  RH  058%=      5-min Rain = 0
KEN1 130927Z 23005KT 03/M04 A2997 RMK A01 T00331042  RH  058%=      5-min Rain = 0
KEN1 130928Z 22004KT 03/M04 A2997 RMK A01 T00321043  RH  058%=      5-min Rain = 0
KEN1 130929Z 21003KT 03/M04 A2997 RMK A01 T00301043  RH  058%=      5-min Rain = 0
KEN1 130930Z 24003KT 03/M04 A2997 RMK A01 T00291044  RH  059%=      5-min Rain = 0
KEN1 130931Z 23003KT 03/M04 A2997 RMK A01 T00291044  RH  059%=      5-min Rain = 0
KEN1 130932Z 24004KT 03/M04 A2997 RMK A01 T00291043  RH  059%=      5-min Rain = 0
KEN1 130933Z 24003KT 03/M04 A2997 RMK A01 T00291043  RH  059%=      5-min Rain = 0
KEN1 130934Z 25002KT 03/M04 A2997 RMK A01 T00281043  RH  059%=      5-min Rain = 0
KEN1 130935Z 26002KT 03/M04 A2997 RMK A01 T00281043  RH  060%=      5-min Rain = 0
KEN1 130936Z 24001KT 03/M04 A2997 RMK A01 T00271043  RH  060%=      5-min Rain = 0
KEN1 130937Z 24001KT 03/M04 A2997 RMK A01 T00261043  RH  060%=      5-min Rain = 0
KEN1 130938Z 28001KT 03/M04 A2997 RMK A01 T00261044  RH  060%=      5-min Rain = 0
KEN1 130939Z 24000KT 03/M04 A2997 RMK A01 T00261044  RH  060%=      5-min Rain = 0
KEN1 130940Z 26001KT 03/M04 A2997 RMK A01 T00261044  RH  060%=      5-min Rain = 0
KEN1 130941Z 21000KT 03/M04 A2998 RMK A01 T00261044  RH  060%=      5-min Rain = 0
KEN1 130942Z 32001KT 03/M04 A2998 RMK A01 T00251044  RH  060%=      5-min Rain = 0
KEN1 130943Z 02001KT 03/M04 A2998 RMK A01 T00251044  RH  060%=      5-min Rain = 0
KEN1 130944Z 00001KT 03/M05 A2998 RMK A01 T00251045  RH  060%=      5-min Rain = 0
KEN1 130945Z 34002KT 03/M05 A2998 RMK A01 T00261045  RH  060%=      5-min Rain = 0
KEN1 130946Z 34003KT 03/M04 A2998 RMK A01 T00271044  RH  059%=      5-min Rain = 0
KEN1 130947Z 31003KT 03/M05 A2998 RMK A01 T00281045  RH  059%=      5-min Rain = 0
KEN1 130948Z 33002KT 03/M05 A2997 RMK A01 T00281045  RH  059%=      5-min Rain = 0
KEN1 130949Z 31003KT 03/M04 A2997 RMK A01 T00301044  RH  058%=      5-min Rain = 0
KEN1 130950Z 32003KT 03/M04 A2997 RMK A01 T00321044  RH  058%=      5-min Rain = 0
KEN1 130951Z 34003KT 03/M04 A2997 RMK A01 T00331044  RH  057%=      5-min Rain = 0
KEN1 130952Z 32003KT 03/M04 A2998 RMK A01 T00331044  RH  057%=      5-min Rain = 0
KEN1 130953Z 31004KT 03/M04 A2998 RMK A01 T00341044  RH  057%=      5-min Rain = 0
KEN1 130954Z 30003KT 03/M04 A2997 RMK A01 T00331044  RH  057%=      5-min Rain = 0
KEN1 130955Z 30003KT 03/M04 A2997 RMK A01 T00341044  RH  057%=      5-min Rain = 0
KEN1 130956Z 29003KT 03/M04 A2997 RMK A01 T00331044  RH  057%=      5-min Rain = 0
KEN1 130957Z 28003KT 03/M05 A2997 RMK A01 T00331045  RH  057%=      5-min Rain = 0
KEN1 130958Z 29002KT 03/M05 A2997 RMK A01 T00321045  RH  057%=      5-min Rain = 0
KEN1 130959Z 29002KT 03/M05 A2997 RMK A01 T00311045  RH  057%=      5-min Rain = 0
KEN1 131000Z 30002KT 03/M05 A2997 RMK A01 T00301046  RH  058%=      5-min Rain = 0
KEN1 131001Z 30000KT 03/M05 A2997 RMK A01 T00301045  RH  058%=      5-min Rain = 0
KEN1 131002Z 27002KT 03/M05 A2997 RMK A01 T00291045  RH  058%=      5-min Rain = 0
KEN1 131003Z 26002KT 03/M05 A2997 RMK A01 T00291046  RH  058%=      5-min Rain = 0
KEN1 131004Z 24001KT 03/M05 A2997 RMK A01 T00301045  RH  058%=      5-min Rain = 0
KEN1 131005Z 22001KT 03/M04 A2997 RMK A01 T00291044  RH  058%=      5-min Rain = 0
KEN1 131006Z 23002KT 03/M05 A2997 RMK A01 T00291045  RH  058%=      5-min Rain = 0
KEN1 131007Z 26002KT 03/M05 A2997 RMK A01 T00301045  RH  058%=      5-min Rain = 0
KEN1 131008Z 27002KT 03/M05 A2997 RMK A01 T00301045  RH  058%=      5-min Rain = 0
KEN1 131009Z 28002KT 03/M05 A2997 RMK A01 T00301045  RH  058%=      5-min Rain = 0
KEN1 131010Z 28003KT 03/M05 A2997 RMK A01 T00301046  RH  058%=      5-min Rain = 0
KEN1 131011Z 27003KT 03/M05 A2997 RMK A01 T00301046  RH  058%=      5-min Rain = 0
KEN1 131012Z 26003KT 03/M05 A2997 RMK A01 T00301046  RH  058%=      5-min Rain = 0
KEN1 131013Z 27003KT 03/M05 A2997 RMK A01 T00291045  RH  058%=      5-min Rain = 0
KEN1 131014Z 27003KT 03/M05 A2997 RMK A01 T00281046  RH  058%=      5-min Rain = 0
KEN1 131015Z 27002KT 03/M05 A2997 RMK A01 T00261046  RH  059%=      5-min Rain = 0
KEN1 131016Z 26003KT 03/M05 A2997 RMK A01 T00251047  RH  059%=      5-min Rain = 0
KEN1 131017Z 28003KT 03/M05 A2997 RMK A01 T00251046  RH  060%=      5-min Rain = 0
KEN1 131018Z 28004KT 02/M05 A2997 RMK A01 T00241046  RH  060%=      5-min Rain = 0
KEN1 131019Z 27006KT 02/M05 A2997 RMK A01 T00241046  RH  060%=      5-min Rain = 0
KEN1 131020Z 27005KT 02/M04 A2997 RMK A01 T00241044  RH  061%=      5-min Rain = 0
KEN1 131021Z 28005KT 02/M05 A2997 RMK A01 T00221045  RH  061%=      5-min Rain = 0
KEN1 131022Z 28005KT 02/M05 A2997 RMK A01 T00201045  RH  062%=      5-min Rain = 0
KEN1 131023Z 29006KT 02/M04 A2997 RMK A01 T00201044  RH  063%=      5-min Rain = 0
KEN1 131024Z 29006KT 02/M04 A2997 RMK A01 T00191043  RH  063%=      5-min Rain = 0
KEN1 131025Z 29005KT 02/M04 A2998 RMK A01 T00181044  RH  064%=      5-min Rain = 0
KEN1 131026Z 29005KT 02/M04 A2998 RMK A01 T00171044  RH  064%=      5-min Rain = 0
KEN1 131027Z 29005KT 02/M04 A2998 RMK A01 T00161044  RH  065%=      5-min Rain = 0
KEN1 131028Z 30005KT 01/M04 A2998 RMK A01 T00141044  RH  065%=      5-min Rain = 0
KEN1 131029Z 30005KT 01/M04 A2998 RMK A01 T00131044  RH  066%=      5-min Rain = 0
KEN1 131030Z 31004KT 01/M04 A2998 RMK A01 T00111044  RH  066%=      5-min Rain = 0
KEN1 131031Z 32005KT 01/M04 A2998 RMK A01 T00111044  RH  067%=      5-min Rain = 0
KEN1 131032Z 30004KT 01/M04 A2998 RMK A01 T00111044  RH  067%=      5-min Rain = 0
KEN1 131033Z 31004KT 01/M04 A2998 RMK A01 T00121043  RH  067%=      5-min Rain = 0
KEN1 131034Z 29004KT 01/M04 A2997 RMK A01 T00121043  RH  066%=      5-min Rain = 0
KEN1 131035Z 29005KT 01/M04 A2997 RMK A01 T00121044  RH  066%=      5-min Rain = 0
KEN1 131036Z 28005KT 01/M04 A2997 RMK A01 T00121044  RH  066%=      5-min Rain = 0
KEN1 131037Z 28005KT 01/M04 A2997 RMK A01 T00111044  RH  067%=      5-min Rain = 0
KEN1 131038Z 28006KT 01/M04 A2997 RMK A01 T00111043  RH  067%=      5-min Rain = 0
KEN1 131039Z 27006KT 01/M04 A2997 RMK A01 T00111043  RH  067%=      5-min Rain = 0
KEN1 131040Z 27006KT 01/M04 A2997 RMK A01 T00121042  RH  068%=      5-min Rain = 0
KEN1 131041Z 27007KT 01/M04 A2997 RMK A01 T00131040  RH  068%=      5-min Rain = 0
KEN1 131042Z 27007KT 01/M04 A2997 RMK A01 T00141039  RH  068%=      5-min Rain = 0
KEN1 131043Z 27006KT 01/M04 A2997 RMK A01 T00141039  RH  068%=      5-min Rain = 0
KEN1 131044Z 27006KT 01/M04 A2997 RMK A01 T00141038  RH  068%=      5-min Rain = 0
KEN1 131045Z 27007KT 01/M04 A2997 RMK A01 T00131038  RH  069%=      5-min Rain = 0
KEN1 131046Z 27007KT 01/M04 A2997 RMK A01 T00121038  RH  069%=      5-min Rain = 0
KEN1 131047Z 27006KT 01/M04 A2997 RMK A01 T00111038  RH  069%=      5-min Rain = 0
KEN1 131048Z 27008KT 01/M04 A2997 RMK A01 T00111038  RH  070%=      5-min Rain = 0
KEN1 131049Z 27008KT 01/M04 A2997 RMK A01 T00131036  RH  070%=      5-min Rain = 0
KEN1 131050Z 27008KT 02/M03 A2996 RMK A01 T00181034  RH  069%=      5-min Rain = 0
KEN1 131051Z 27009KT 02/M03 A2997 RMK A01 T00211034  RH  067%=      5-min Rain = 0
KEN1 131052Z 26009KT 02/M03 A2997 RMK A01 T00211034  RH  067%=      5-min Rain = 0
KEN1 131053Z 26008KT 02/M03 A2997 RMK A01 T00221033  RH  067%=      5-min Rain = 0
KEN1 131054Z 26009KT 02/M03 A2997 RMK A01 T00211034  RH  067%=      5-min Rain = 0
KEN1 131055Z 26008KT 02/M04 A2997 RMK A01 T00211035  RH  066%=      5-min Rain = 0
KEN1 131056Z 25008KT 02/M04 A2997 RMK A01 T00201035  RH  067%=      5-min Rain = 0
KEN1 131057Z 25008KT 02/M04 A2997 RMK A01 T00181036  RH  067%=      5-min Rain = 0
KEN1 131058Z 25008KT 02/M04 A2997 RMK A01 T00161036  RH  068%=      5-min Rain = 0
KEN1 131059Z 25008KT 02/M04 A2996 RMK A01 T00161035  RH  069%=      5-min Rain = 0
KEN1 131100Z 24009KT 02/M04 A2996 RMK A01 T00151035  RH  069%=      5-min Rain = 0
KEN1 131101Z 25008KT 01/M04 A2996 RMK A01 T00141035  RH  070%=      5-min Rain = 0
KEN1 131102Z 25008KT 01/M04 A2996 RMK A01 T00141036  RH  070%=      5-min Rain = 0
KEN1 131103Z 25008KT 01/M04 A2996 RMK A01 T00141036  RH  070%=      5-min Rain = 0
KEN1 131104Z 26009KT 02/M04 A2996 RMK A01 T00161036  RH  069%=      5-min Rain = 0
KEN1 131105Z 25009KT 02/M04 A2996 RMK A01 T00181035  RH  068%=      5-min Rain = 0
KEN1 131106Z 25009KT 02/M04 A2996 RMK A01 T00181036  RH  067%=      5-min Rain = 0
KEN1 131107Z 25008KT 02/M04 A2996 RMK A01 T00181035  RH  067%=      5-min Rain = 0
KEN1 131108Z 25008KT 02/M04 A2996 RMK A01 T00181036  RH  067%=      5-min Rain = 0
KEN1 131109Z 25008KT 02/M04 A2996 RMK A01 T00191036  RH  067%=      5-min Rain = 0
KEN1 131110Z 25007KT 02/M04 A2996 RMK A01 T00191036  RH  067%=      5-min Rain = 0
KEN1 131111Z 25007KT 02/M04 A2996 RMK A01 T00171037  RH  067%=      5-min Rain = 0
KEN1 131112Z 24006KT 02/M04 A2997 RMK A01 T00171037  RH  067%=      5-min Rain = 0
KEN1 131113Z 24005KT 02/M04 A2997 RMK A01 T00161037  RH  068%=      5-min Rain = 0
KEN1 131114Z 23006KT 02/M04 A2997 RMK A01 T00151037  RH  068%=      5-min Rain = 0
KEN1 131115Z 23005KT 01/M04 A2997 RMK A01 T00141038  RH  069%=      5-min Rain = 0
KEN1 131116Z 23006KT 01/M04 A2997 RMK A01 T00121038  RH  069%=      5-min Rain = 0
KEN1 131117Z 23007KT 01/M04 A2997 RMK A01 T00111037  RH  070%=      5-min Rain = 0
KEN1 131118Z 23007KT 01/M04 A2997 RMK A01 T00111037  RH  070%=      5-min Rain = 0
KEN1 131119Z 23006KT 01/M04 A2997 RMK A01 T00111037  RH  070%=      5-min Rain = 0
KEN1 131120Z 23007KT 01/M04 A2997 RMK A01 T00121036  RH  070%=      5-min Rain = 0
KEN1 131121Z 23006KT 01/M04 A2997 RMK A01 T00121035  RH  071%=      5-min Rain = 0
KEN1 131122Z 22006KT 01/M04 A2997 RMK A01 T00121035  RH  071%=      5-min Rain = 0
KEN1 131123Z 22005KT 01/M03 A2997 RMK A01 T00131034  RH  071%=      5-min Rain = 0
KEN1 131124Z 22005KT 02/M03 A2997 RMK A01 T00151033  RH  070%=      5-min Rain = 0
KEN1 131125Z 21004KT 02/M03 A2997 RMK A01 T00171033  RH  070%=      5-min Rain = 0
KEN1 131126Z 21005KT 02/M03 A2997 RMK A01 T00181033  RH  069%=      5-min Rain = 0
KEN1 131127Z 21004KT 02/M03 A2997 RMK A01 T00191032  RH  069%=      5-min Rain = 0
KEN1 131128Z 21005KT 02/M03 A2997 RMK A01 T00191032  RH  069%=      5-min Rain = 0
KEN1 131129Z 20004KT 02/M03 A2997 RMK A01 T00201032  RH  068%=      5-min Rain = 0
KEN1 131130Z 20004KT 02/M03 A2997 RMK A01 T00201032  RH  068%=      5-min Rain = 0
KEN1 131131Z 19003KT 02/M03 A2997 RMK A01 T00201032  RH  068%=      5-min Rain = 0
KEN1 131132Z 19003KT 02/M03 A2997 RMK A01 T00221032  RH  068%=      5-min Rain = 0
KEN1 131133Z 19003KT 02/M03 A2997 RMK A01 T00221032  RH  067%=      5-min Rain = 0
KEN1 131134Z 19003KT 02/M03 A2997 RMK A01 T00221032  RH  067%=      5-min Rain = 0
KEN1 131135Z 19003KT 02/M03 A2997 RMK A01 T00231033  RH  067%=      5-min Rain = 0
KEN1 131136Z 20003KT 02/M03 A2997 RMK A01 T00241032  RH  066%=      5-min Rain = 0
KEN1 131137Z 18003KT 03/M03 A2997 RMK A01 T00261032  RH  066%=      5-min Rain = 0
KEN1 131138Z 19003KT 03/M03 A2997 RMK A01 T00261032  RH  065%=      5-min Rain = 0
KEN1 131139Z 19003KT 03/M03 A2997 RMK A01 T00271032  RH  065%=      5-min Rain = 0
KEN1 131140Z 19004KT 03/M03 A2997 RMK A01 T00271032  RH  065%=      5-min Rain = 0
KEN1 131141Z 20005KT 03/M03 A2997 RMK A01 T00281032  RH  064%=      5-min Rain = 0
KEN1 131142Z 22007KT 03/M03 A2997 RMK A01 T00291032  RH  064%=      5-min Rain = 0
KEN1 131143Z 21003KT 03/M03 A2997 RMK A01 T00311032  RH  063%=      5-min Rain = 0
KEN1 131144Z 24005KT 03/M03 A2997 RMK A01 T00321032  RH  063%=      5-min Rain = 0
KEN1 131145Z 24002KT 03/M03 A2997 RMK A01 T00321032  RH  063%=      5-min Rain = 0
KEN1 131146Z 21001KT 03/M03 A2997 RMK A01 T00321032  RH  063%=      5-min Rain = 0
KEN1 131147Z 23001KT 03/M03 A2997 RMK A01 T00331032  RH  063%=      5-min Rain = 0
KEN1 131148Z 20001KT 03/M03 A2997 RMK A01 T00341032  RH  062%=      5-min Rain = 0
KEN1 131149Z 22003KT 04/M03 A2997 RMK A01 T00361032  RH  061%=      5-min Rain = 0
KEN1 131150Z 22002KT 04/M03 A2997 RMK A01 T00371032  RH  061%=      5-min Rain = 0
KEN1 131151Z 21004KT 04/M03 A2997 RMK A01 T00381031  RH  061%=      5-min Rain = 0
KEN1 131152Z 22005KT 04/M03 A2997 RMK A01 T00381031  RH  061%=      5-min Rain = 0
KEN1 131153Z 21004KT 04/M03 A2997 RMK A01 T00381031  RH  060%=      5-min Rain = 0
KEN1 131154Z 22004KT 04/M03 A2997 RMK A01 T00391031  RH  060%=      5-min Rain = 0
KEN1 131155Z 22003KT 04/M03 A2997 RMK A01 T00391031  RH  060%=      5-min Rain = 0
KEN1 131156Z 23003KT 04/M03 A2997 RMK A01 T00381031  RH  061%=      5-min Rain = 0
KEN1 131157Z 22003KT 04/M03 A2996 RMK A01 T00371031  RH  061%=      5-min Rain = 0
KEN1 131158Z 23004KT 04/M03 A2996 RMK A01 T00371031  RH  061%=      5-min Rain = 0
KEN1 131159Z 24005KT 04/M03 A2997 RMK A01 T00381031  RH  061%=      5-min Rain = 0
KEN1 131200Z 22004KT 04/M03 A2997 RMK A01 T00391031  RH  060%=      5-min Rain = 0
KEN1 131201Z 21005KT 04/M03 A2996 RMK A01 T00401031  RH  060%=      5-min Rain = 0
KEN1 131202Z 21004KT 04/M03 A2996 RMK A01 T00411031  RH  059%=      5-min Rain = 0
KEN1 131203Z 21004KT 04/M03 A2996 RMK A01 T00421031  RH  059%=      5-min Rain = 0
KEN1 131204Z 22005KT 04/M03 A2996 RMK A01 T00411031  RH  059%=      5-min Rain = 0
KEN1 131205Z 23003KT 04/M03 A2996 RMK A01 T00421031  RH  059%=      5-min Rain = 0
KEN1 131206Z 20004KT 04/M03 A2996 RMK A01 T00431031  RH  059%=      5-min Rain = 0
KEN1 131207Z 21005KT 04/M03 A2996 RMK A01 T00441030  RH  058%=      5-min Rain = 0
KEN1 131208Z 21006KT 05/M03 A2996 RMK A01 T00451031  RH  058%=      5-min Rain = 0
KEN1 131209Z 21005KT 05/M03 A2996 RMK A01 T00481031  RH  057%=      5-min Rain = 0
KEN1 131210Z 23004KT 05/M03 A2996 RMK A01 T00491030  RH  057%=      5-min Rain = 0
KEN1 131211Z 23005KT 05/M03 A2996 RMK A01 T00491030  RH  057%=      5-min Rain = 0
KEN1 131212Z 23005KT 05/M03 A2996 RMK A01 T00491030  RH  057%=      5-min Rain = 0
KEN1 131213Z 23005KT 05/M03 A2996 RMK A01 T00481030  RH  057%=      5-min Rain = 0
KEN1 131214Z 23005KT 05/M03 A2996 RMK A01 T00461030  RH  058%=      5-min Rain = 0
KEN1 131215Z 22004KT 05/M03 A2996 RMK A01 T00461030  RH  058%=      5-min Rain = 0
KEN1 131216Z 22005KT 05/M03 A2996 RMK A01 T00461031  RH  058%=      5-min Rain = 0
KEN1 131217Z 24006KT 05/M03 A2996 RMK A01 T00451030  RH  058%=      5-min Rain = 0
KEN1 131218Z 23005KT 05/M03 A2996 RMK A01 T00461030  RH  058%=      5-min Rain = 0
KEN1 131219Z 24005KT 05/M03 A2996 RMK A01 T00451029  RH  058%=      5-min Rain = 0
KEN1 131220Z 24005KT 05/M03 A2996 RMK A01 T00461029  RH  058%=      5-min Rain = 0
KEN1 131221Z 24005KT 05/M03 A2996 RMK A01 T00461029  RH  058%=      5-min Rain = 0
KEN1 131222Z 24005KT 05/M03 A2996 RMK A01 T00461028  RH  058%=      5-min Rain = 0
KEN1 131223Z 25005KT 05/M03 A2996 RMK A01 T00461028  RH  059%=      5-min Rain = 0
KEN1 131224Z 25004KT 05/M03 A2996 RMK A01 T00471027  RH  059%=      5-min Rain = 0
KEN1 131225Z 24005KT 05/M03 A2996 RMK A01 T00461028  RH  059%=      5-min Rain = 0
KEN1 131226Z 24004KT 05/M03 A2996 RMK A01 T00461028  RH  059%=      5-min Rain = 0
KEN1 131227Z 24004KT 05/M03 A2996 RMK A01 T00461028  RH  059%=      5-min Rain = 0
KEN1 131228Z 24004KT 05/M03 A2995 RMK A01 T00451028  RH  059%=      5-min Rain = 0
KEN1 131229Z 23004KT 04/M03 A2995 RMK A01 T00441028  RH  060%=      5-min Rain = 0
KEN1 131230Z 23003KT 04/M03 A2995 RMK A01 T00431028  RH  060%=      5-min Rain = 0
KEN1 131231Z 23005KT 04/M03 A2995 RMK A01 T00421028  RH  060%=      5-min Rain = 0
KEN1 131232Z 23004KT 04/M03 A2995 RMK A01 T00421027  RH  061%=      5-min Rain = 0
KEN1 131233Z 22004KT 04/M03 A2995 RMK A01 T00411027  RH  061%=      5-min Rain = 0
KEN1 131234Z 22004KT 04/M03 A2995 RMK A01 T00411027  RH  061%=      5-min Rain = 0
KEN1 131235Z 21004KT 04/M03 A2995 RMK A01 T00401027  RH  062%=      5-min Rain = 0
KEN1 131236Z 22004KT 04/M03 A2995 RMK A01 T00391028  RH  062%=      5-min Rain = 0
KEN1 131237Z 21004KT 04/M03 A2995 RMK A01 T00381028  RH  062%=      5-min Rain = 0
KEN1 131238Z 21004KT 04/M03 A2995 RMK A01 T00371028  RH  062%=      5-min Rain = 0
KEN1 131239Z 23004KT 04/M03 A2995 RMK A01 T00371029  RH  062%=      5-min Rain = 0
KEN1 131240Z 22003KT 04/M03 A2995 RMK A01 T00391028  RH  061%=      5-min Rain = 0
KEN1 131241Z 24003KT 04/M03 A2995 RMK A01 T00411028  RH  061%=      5-min Rain = 0
KEN1 131242Z 23003KT 04/M03 A2995 RMK A01 T00411029  RH  060%=      5-min Rain = 0
KEN1 131243Z 25004KT 04/M03 A2995 RMK A01 T00421029  RH  060%=      5-min Rain = 0
KEN1 131244Z 24003KT 04/M03 A2995 RMK A01 T00431028  RH  060%=      5-min Rain = 0
KEN1 131245Z 25004KT 04/M03 A2995 RMK A01 T00431029  RH  060%=      5-min Rain = 0
KEN1 131246Z 25002KT 04/M03 A2995 RMK A01 T00441029  RH  059%=      5-min Rain = 0
KEN1 131247Z 25002KT 04/M03 A2995 RMK A01 T00441028  RH  059%=      5-min Rain = 0
KEN1 131248Z 24001KT 04/M03 A2995 RMK A01 T00441028  RH  059%=      5-min Rain = 0
KEN1 131249Z 22000KT 04/M03 A2995 RMK A01 T00441028  RH  059%=      5-min Rain = 0
KEN1 131250Z 20000KT 05/M03 A2995 RMK A01 T00451028  RH  059%=      5-min Rain = 0
KEN1 131251Z 14000KT 05/M03 A2995 RMK A01 T00451028  RH  059%=      5-min Rain = 0
KEN1 131252Z 21002KT 05/M03 A2995 RMK A01 T00451029  RH  059%=      5-min Rain = 0
KEN1 131253Z 22002KT 05/M03 A2995 RMK A01 T00451028  RH  059%=      5-min Rain = 0
KEN1 131254Z 21002KT 05/M03 A2995 RMK A01 T00461028  RH  059%=      5-min Rain = 0
KEN1 131255Z 21003KT 05/M03 A2995 RMK A01 T00461028  RH  059%=      5-min Rain = 0
KEN1 131256Z 20002KT 05/M03 A2995 RMK A01 T00461028  RH  059%=      5-min Rain = 0
KEN1 131257Z 21002KT 05/M03 A2995 RMK A01 T00471027  RH  059%=      5-min Rain = 0
KEN1 131258Z 22002KT 05/M03 A2996 RMK A01 T00471027  RH  058%=      5-min Rain = 0
KEN1 131259Z 21001KT 05/M03 A2996 RMK A01 T00481027  RH  058%=      5-min Rain = 0
KEN1 131300Z 10001KT 05/M03 A2996 RMK A01 T00481027  RH  058%=      5-min Rain = 0
KEN1 131301Z 14000KT 05/M03 A2996 RMK A01 T00491027  RH  058%=      5-min Rain = 0
KEN1 131302Z 10001KT 05/M03 A2996 RMK A01 T00481028  RH  058%=      5-min Rain = 0
KEN1 131303Z 12002KT 05/M03 A2996 RMK A01 T00481028  RH  058%=      5-min Rain = 0
KEN1 131304Z 10002KT 05/M03 A2996 RMK A01 T00481028  RH  058%=      5-min Rain = 0
KEN1 131305Z 02001KT 05/M03 A2996 RMK A01 T00471028  RH  058%=      5-min Rain = 0
KEN1 131306Z 12002KT 05/M03 A2996 RMK A01 T00481028  RH  058%=      5-min Rain = 0
KEN1 131307Z 26002KT 05/M03 A2996 RMK A01 T00501027  RH  057%=      5-min Rain = 0
KEN1 131308Z 24001KT 05/M03 A2996 RMK A01 T00511027  RH  057%=      5-min Rain = 0
KEN1 131309Z 26002KT 05/M03 A2996 RMK A01 T00521028  RH  057%=      5-min Rain = 0
KEN1 131310Z 23002KT 06/M03 A2996 RMK A01 T00561026  RH  056%=      5-min Rain = 0
KEN1 131311Z 28004KT 06/M03 A2996 RMK A01 T00571026  RH  055%=      5-min Rain = 0
KEN1 131312Z 26004KT 06/M03 A2996 RMK A01 T00591027  RH  054%=      5-min Rain = 0
KEN1 131313Z 28005KT 06/M03 A2996 RMK A01 T00621026  RH  053%=      5-min Rain = 0
KEN1 131314Z 26006KT 06/M03 A2996 RMK A01 T00621026  RH  053%=      5-min Rain = 0
KEN1 131315Z 25005KT 06/M03 A2996 RMK A01 T00611027  RH  053%=      5-min Rain = 0
KEN1 131316Z 27003KT 06/M03 A2996 RMK A01 T00591027  RH  054%=      5-min Rain = 0
KEN1 131317Z 27005KT 06/M03 A2996 RMK A01 T00561028  RH  055%=      5-min Rain = 0
KEN1 131318Z 27004KT 05/M03 A2996 RMK A01 T00541028  RH  055%=      5-min Rain = 0
KEN1 131319Z 28004KT 05/M03 A2996 RMK A01 T00531028  RH  056%=      5-min Rain = 0
KEN1 131320Z 26006G11KT 05/M03 A2996 RMK A01 T00511029  RH  057%=      5-min Rain = 0
KEN1 131321Z 26007KT 05/M03 A2996 RMK A01 T00501029  RH  057%=      5-min Rain = 0
KEN1 131322Z 25007KT 05/M03 A2996 RMK A01 T00501028  RH  057%=      5-min Rain = 0
KEN1 131323Z 26006KT 05/M03 A2996 RMK A01 T00491028  RH  058%=      5-min Rain = 0
KEN1 131324Z 27006KT 05/M03 A2996 RMK A01 T00501027  RH  058%=      5-min Rain = 0
KEN1 131325Z 26007KT 05/M03 A2996 RMK A01 T00501027  RH  058%=      5-min Rain = 0
KEN1 131326Z 25006KT 05/M03 A2996 RMK A01 T00491027  RH  058%=      5-min Rain = 0
KEN1 131327Z 25008KT 05/M03 A2996 RMK A01 T00481028  RH  058%=      5-min Rain = 0
KEN1 131328Z 25008KT 05/M03 A2996 RMK A01 T00461028  RH  058%=      5-min Rain = 0
KEN1 131329Z 25007KT 05/M03 A2996 RMK A01 T00451029  RH  059%=      5-min Rain = 0
KEN1 131330Z 24006KT 05/M03 A2996 RMK A01 T00451028  RH  059%=      5-min Rain = 0
KEN1 131331Z 25007KT 04/M03 A2996 RMK A01 T00441028  RH  060%=      5-min Rain = 0
KEN1 131332Z 24006KT 04/M03 A2996 RMK A01 T00431028  RH  060%=      5-min Rain = 0
KEN1 131333Z 25007KT 04/M03 A2996 RMK A01 T00421028  RH  060%=      5-min Rain = 0
KEN1 131334Z 24006KT 04/M03 A2996 RMK A01 T00421028  RH  061%=      5-min Rain = 0
KEN1 131335Z 24006KT 04/M03 A2996 RMK A01 T00401028  RH  061%=      5-min Rain = 0
KEN1 131336Z 24005KT 04/M03 A2996 RMK A01 T00391028  RH  062%=      5-min Rain = 0
KEN1 131337Z 25004KT 04/M03 A2996 RMK A01 T00381028  RH  062%=      5-min Rain = 0
KEN1 131338Z 26006KT 04/M03 A2996 RMK A01 T00371028  RH  062%=      5-min Rain = 0
KEN1 131339Z 26004KT 04/M03 A2996 RMK A01 T00361028  RH  063%=      5-min Rain = 0
KEN1 131340Z 26005KT 04/M03 A2996 RMK A01 T00351028  RH  063%=      5-min Rain = 0
KEN1 131341Z 26005KT 04/M03 A2996 RMK A01 T00351028  RH  064%=      5-min Rain = 0
KEN1 131342Z 26005KT 04/M03 A2996 RMK A01 T00351027  RH  064%=      5-min Rain = 0
KEN1 131343Z 27004KT 03/M03 A2996 RMK A01 T00341027  RH  064%=      5-min Rain = 0
KEN1 131344Z 27005KT 03/M03 A2996 RMK A01 T00341027  RH  064%=      5-min Rain = 0
KEN1 131345Z 28006KT 03/M03 A2996 RMK A01 T00341026  RH  064%=      5-min Rain = 0
KEN1 131346Z 28007KT 03/M03 A2996 RMK A01 T00331027  RH  065%=      5-min Rain = 0
KEN1 131347Z 27008KT 03/M03 A2997 RMK A01 T00341026  RH  065%=      5-min Rain = 0
KEN1 131348Z 27009KT 03/M03 A2997 RMK A01 T00341025  RH  065%=      5-min Rain = 0
KEN1 131349Z 28009KT 03/M03 A2997 RMK A01 T00341025  RH  066%=      5-min Rain = 0
KEN1 131350Z 28008KT 03/M02 A2997 RMK A01 T00331024  RH  066%=      5-min Rain = 0
KEN1 131351Z 28008KT 03/M02 A2997 RMK A01 T00341024  RH  066%=      5-min Rain = 0
KEN1 131352Z 28009KT 03/M02 A2997 RMK A01 T00331024  RH  066%=      5-min Rain = 0
KEN1 131353Z 28008KT 03/M02 A2997 RMK A01 T00331024  RH  066%=      5-min Rain = 0
KEN1 131354Z 27009KT 03/M02 A2997 RMK A01 T00331024  RH  066%=      5-min Rain = 0
KEN1 131355Z 27009KT 03/M02 A2997 RMK A01 T00341024  RH  066%=      5-min Rain = 0
KEN1 131356Z 27010KT 04/M02 A2997 RMK A01 T00351023  RH  066%=      5-min Rain = 0
KEN1 131357Z 26010KT 04/M02 A2997 RMK A01 T00361022  RH  066%=      5-min Rain = 0
KEN1 131358Z 26011KT 04/M02 A2997 RMK A01 T00361023  RH  065%=      5-min Rain = 0
KEN1 131359Z 27011KT 04/M02 A2997 RMK A01 T00371022  RH  065%=      5-min Rain = 0
KEN1 131400Z 26012KT 04/M02 A2998 RMK A01 T00381022  RH  065%=      5-min Rain = 0
KEN1 131401Z 26013KT 04/M02 A2998 RMK A01 T00391022  RH  064%=      5-min Rain = 0
KEN1 131402Z 26013KT 04/M02 A2998 RMK A01 T00391023  RH  064%=      5-min Rain = 0
KEN1 131403Z 26012KT 04/M02 A2998 RMK A01 T00401023  RH  064%=      5-min Rain = 0
KEN1 131404Z 27013KT 04/M02 A2998 RMK A01 T00411023  RH  063%=      5-min Rain = 0
KEN1 131405Z 27012KT 04/M02 A2997 RMK A01 T00411022  RH  063%=      5-min Rain = 0
KEN1 131406Z 26012KT 04/M02 A2997 RMK A01 T00421022  RH  063%=      5-min Rain = 0
KEN1 131407Z 26012KT 04/M02 A2997 RMK A01 T00421023  RH  063%=      5-min Rain = 0
KEN1 131408Z 26012KT 04/M02 A2997 RMK A01 T00421023  RH  063%=      5-min Rain = 0
KEN1 131409Z 26012KT 04/M02 A2997 RMK A01 T00421023  RH  063%=      5-min Rain = 0
KEN1 131410Z 26011KT 04/M02 A2997 RMK A01 T00431023  RH  062%=      5-min Rain = 0
KEN1 131411Z 26011KT 04/M02 A2997 RMK A01 T00431023  RH  062%=      5-min Rain = 0
KEN1 131412Z 26011KT 04/M02 A2997 RMK A01 T00441022  RH  062%=      5-min Rain = 0
KEN1 131413Z 26011KT 04/M02 A2996 RMK A01 T00441023  RH  062%=      5-min Rain = 0
KEN1 131414Z 26010KT 05/M02 A2996 RMK A01 T00451023  RH  062%=      5-min Rain = 0
KEN1 131415Z 26011KT 05/M02 A2996 RMK A01 T00451023  RH  061%=      5-min Rain = 0
KEN1 131416Z 26012KT 05/M02 A2996 RMK A01 T00461022  RH  061%=      5-min Rain = 0
KEN1 131417Z 26012KT 05/M02 A2996 RMK A01 T00471022  RH  061%=      5-min Rain = 0
KEN1 131418Z 26012KT 05/M02 A2996 RMK A01 T00471023  RH  060%=      5-min Rain = 0
KEN1 131419Z 26011KT 05/M02 A2996 RMK A01 T00481023  RH  060%=      5-min Rain = 0
KEN1 131420Z 26011KT 05/M02 A2996 RMK A01 T00491022  RH  060%=      5-min Rain = 0
KEN1 131421Z 26011KT 05/M02 A2996 RMK A01 T00481023  RH  060%=      5-min Rain = 0
KEN1 131422Z 26010KT 05/M02 A2997 RMK A01 T00481023  RH  060%=      5-min Rain = 0
KEN1 131423Z 26010KT 05/M02 A2997 RMK A01 T00481023  RH  060%=      5-min Rain = 0
KEN1 131424Z 27010KT 05/M02 A2997 RMK A01 T00481022  RH  060%=      5-min Rain = 0
KEN1 131425Z 26009KT 05/M02 A2998 RMK A01 T00481022  RH  060%=      5-min Rain = 0
KEN1 131426Z 27010KT 05/M02 A2998 RMK A01 T00481022  RH  060%=      5-min Rain = 0
KEN1 131427Z 27009KT 05/M02 A2998 RMK A01 T00491022  RH  060%=      5-min Rain = 0
KEN1 131428Z 28008KT 05/M02 A2998 RMK A01 T00491022  RH  060%=      5-min Rain = 0
KEN1 131429Z 28008KT 05/M02 A2998 RMK A01 T00491022  RH  060%=      5-min Rain = 0
KEN1 131430Z 28008KT 05/M02 A2998 RMK A01 T00501021  RH  060%=      5-min Rain = 0
KEN1 131431Z 29007KT 05/M02 A2998 RMK A01 T00501021  RH  060%=      5-min Rain = 0
KEN1 131432Z 29006KT 05/M02 A2998 RMK A01 T00501021  RH  060%=      5-min Rain = 0
KEN1 131433Z 29007KT 05/M02 A2998 RMK A01 T00491021  RH  061%=      5-min Rain = 0
KEN1 131434Z 29006KT 05/M02 A2998 RMK A01 T00481021  RH  061%=      5-min Rain = 0
KEN1 131435Z 28005KT 05/M02 A2998 RMK A01 T00471022  RH  061%=      5-min Rain = 0
KEN1 131436Z 29006KT 05/M02 A2998 RMK A01 T00471022  RH  061%=      5-min Rain = 0
KEN1 131437Z 29006KT 05/M02 A2998 RMK A01 T00471022  RH  061%=      5-min Rain = 0
KEN1 131438Z 29006KT 05/M02 A2998 RMK A01 T00461021  RH  061%=      5-min Rain = 0
KEN1 131439Z 29006KT 05/M02 A2998 RMK A01 T00471021  RH  061%=      5-min Rain = 0
KEN1 131440Z 29007KT 05/M02 A2998 RMK A01 T00481021  RH  061%=      5-min Rain = 0
KEN1 131441Z 29007KT 05/M02 A2998 RMK A01 T00491021  RH  061%=      5-min Rain = 0
KEN1 131442Z 28007KT 05/M02 A2998 RMK A01 T00501020  RH  061%=      5-min Rain = 0
KEN1 131443Z 28007KT 05/M02 A2998 RMK A01 T00511019  RH  060%=      5-min Rain = 0
KEN1 131444Z 28007KT 05/M02 A2998 RMK A01 T00521019  RH  060%=      5-min Rain = 0
KEN1 131445Z 28007KT 05/M02 A2998 RMK A01 T00521019  RH  060%=      5-min Rain = 0
KEN1 131446Z 27007KT 05/M02 A2998 RMK A01 T00531018  RH  060%=      5-min Rain = 0
KEN1 131447Z 27007KT 05/M02 A2998 RMK A01 T00541018  RH  060%=      5-min Rain = 0
KEN1 131448Z 27007KT 06/M02 A2998 RMK A01 T00561017  RH  059%=      5-min Rain = 0
KEN1 131449Z 27007KT 06/M02 A2998 RMK A01 T00571018  RH  059%=      5-min Rain = 0
KEN1 131450Z 27007KT 06/M02 A2997 RMK A01 T00581018  RH  058%=      5-min Rain = 0
KEN1 131451Z 27007KT 06/M02 A2997 RMK A01 T00591018  RH  058%=      5-min Rain = 0
KEN1 131452Z 27007KT 06/M02 A2997 RMK A01 T00591017  RH  058%=      5-min Rain = 0
KEN1 131453Z 27007KT 06/M02 A2997 RMK A01 T00591017  RH  058%=      5-min Rain = 0
KEN1 131454Z 27008KT 06/M02 A2997 RMK A01 T00601017  RH  058%=      5-min Rain = 0
KEN1 131455Z 28008KT 06/M02 A2997 RMK A01 T00621016  RH  057%=      5-min Rain = 0
KEN1 131456Z 28007KT 06/M02 A2998 RMK A01 T00641016  RH  057%=      5-min Rain = 0
KEN1 131457Z 28007KT 07/M02 A2998 RMK A01 T00651016  RH  056%=      5-min Rain = 0
KEN1 131458Z 28006KT 07/M02 A2998 RMK A01 T00651017  RH  056%=      5-min Rain = 0
KEN1 131459Z 28006KT 07/M02 A2998 RMK A01 T00651016  RH  056%=      5-min Rain = 0
KEN1 131500Z 28006KT 07/M02 A2998 RMK A01 T00651016  RH  056%=      5-min Rain = 0
KEN1 131501Z 28006KT 07/M02 A2997 RMK A01 T00651015  RH  056%=      5-min Rain = 0
KEN1 131502Z 27006KT 07/M02 A2997 RMK A01 T00651016  RH  056%=      5-min Rain = 0
KEN1 131503Z 26007KT 07/M02 A2997 RMK A01 T00661015  RH  056%=      5-min Rain = 0
KEN1 131504Z 27007KT 07/M02 A2997 RMK A01 T00661015  RH  056%=      5-min Rain = 0
KEN1 131505Z 27006KT 07/M02 A2997 RMK A01 T00661016  RH  056%=      5-min Rain = 0
KEN1 131506Z 27007KT 07/M02 A2997 RMK A01 T00661015  RH  056%=      5-min Rain = 0
KEN1 131507Z 28007KT 07/M02 A2998 RMK A01 T00661015  RH  056%=      5-min Rain = 0
KEN1 131508Z 27007KT 07/M02 A2998 RMK A01 T00671015  RH  056%=      5-min Rain = 0
KEN1 131509Z 27006KT 07/M01 A2998 RMK A01 T00681014  RH  056%=      5-min Rain = 0
KEN1 131510Z 27007KT 07/M01 A2998 RMK A01 T00681012  RH  056%=      5-min Rain = 0
KEN1 131511Z 27007KT 07/M01 A2998 RMK A01 T00691013  RH  056%=      5-min Rain = 0
KEN1 131512Z 27007KT 07/M01 A2998 RMK A01 T00711012  RH  056%=      5-min Rain = 0
KEN1 131513Z 26008KT 07/M01 A2997 RMK A01 T00721012  RH  055%=      5-min Rain = 0
KEN1 131514Z 27008KT 07/M01 A2997 RMK A01 T00741012  RH  054%=      5-min Rain = 0
KEN1 131515Z 27008KT 08/M01 A2997 RMK A01 T00751011  RH  054%=      5-min Rain = 0
KEN1 131516Z 26006KT 08/M01 A2997 RMK A01 T00771011  RH  054%=      5-min Rain = 0
KEN1 131517Z 26008KT 08/M01 A2997 RMK A01 T00781010  RH  054%=      5-min Rain = 0
KEN1 131518Z 26008KT 08/M01 A2997 RMK A01 T00781011  RH  053%=      5-min Rain = 0
KEN1 131519Z 26007KT 08/M01 A2997 RMK A01 T00781011  RH  053%=      5-min Rain = 0
KEN1 131520Z 27008KT 08/M01 A2997 RMK A01 T00781011  RH  053%=      5-min Rain = 0
KEN1 131521Z 27007KT 08/M01 A2997 RMK A01 T00791010  RH  053%=      5-min Rain = 0
KEN1 131522Z 27007KT 08/M01 A2997 RMK A01 T00801009  RH  053%=      5-min Rain = 0
KEN1 131523Z 27007KT 08/M01 A2997 RMK A01 T00821008  RH  053%=      5-min Rain = 0
KEN1 131524Z 27007KT 08/M01 A2997 RMK A01 T00831007  RH  053%=      5-min Rain = 0
KEN1 131525Z 27007KT 09/M01 A2997 RMK A01 T00851007  RH  052%=      5-min Rain = 0
KEN1 131526Z 26007KT 09/M01 A2997 RMK A01 T00871007  RH  051%=      5-min Rain = 0
KEN1 131527Z 26008KT 09/M01 A2997 RMK A01 T00901008  RH  050%=      5-min Rain = 0
KEN1 131528Z 26011KT 09/M01 A2997 RMK A01 T00921009  RH  049%=      5-min Rain = 0
KEN1 131529Z 26010KT 10/M01 A2997 RMK A01 T00951009  RH  048%=      5-min Rain = 0
KEN1 131530Z 26010KT 10/M01 A2997 RMK A01 T00971009  RH  048%=      5-min Rain = 0
KEN1 131531Z 26010KT 10/M01 A2997 RMK A01 T00981009  RH  047%=      5-min Rain = 0
KEN1 131532Z 26011KT 10/M01 A2997 RMK A01 T00991008  RH  047%=      5-min Rain = 0
KEN1 131533Z 26011KT 10/M01 A2997 RMK A01 T01001010  RH  046%=      5-min Rain = 0
KEN1 131534Z 26009KT 10/M01 A2997 RMK A01 T01011010  RH  046%=      5-min Rain = 0
KEN1 131535Z 26011KT 10/M01 A2997 RMK A01 T01011010  RH  046%=      5-min Rain = 0
KEN1 131536Z 26012KT 10/M01 A2997 RMK A01 T01011010  RH  046%=      5-min Rain = 0
KEN1 131537Z 26013KT 10/M01 A2997 RMK A01 T01021011  RH  045%=      5-min Rain = 0
KEN1 131538Z 25011KT 10/M01 A2997 RMK A01 T01031012  RH  045%=      5-min Rain = 0
KEN1 131539Z 25009KT 10/M01 A2997 RMK A01 T01021011  RH  045%=      5-min Rain = 0
KEN1 131540Z 25012KT 10/M01 A2997 RMK A01 T01031011  RH  045%=      5-min Rain = 0
KEN1 131541Z 25012KT 10/M01 A2997 RMK A01 T01031011  RH  045%=      5-min Rain = 0
KEN1 131542Z 26012KT 10/M01 A2997 RMK A01 T01031012  RH  045%=      5-min Rain = 0
KEN1 131543Z 26013KT 10/M01 A2998 RMK A01 T01041012  RH  044%=      5-min Rain = 0
KEN1 131544Z 26011KT 11/M01 A2997 RMK A01 T01051012  RH  044%=      5-min Rain = 0
KEN1 131545Z 26011KT 11/M01 A2997 RMK A01 T01061011  RH  044%=      5-min Rain = 0
KEN1 131546Z 26010KT 11/M01 A2997 RMK A01 T01071010  RH  044%=      5-min Rain = 0
KEN1 131547Z 25012KT 11/M01 A2997 RMK A01 T01081011  RH  044%=      5-min Rain = 0
KEN1 131548Z 25011KT 11/M01 A2997 RMK A01 T01081010  RH  044%=      5-min Rain = 0
KEN1 131549Z 25013KT 11/M01 A2997 RMK A01 T01101009  RH  044%=      5-min Rain = 0
KEN1 131550Z 25014KT 11/M01 A2997 RMK A01 T01101011  RH  043%=      5-min Rain = 0
KEN1 131551Z 26014KT 11/M01 A2997 RMK A01 T01111011  RH  043%=      5-min Rain = 0
KEN1 131552Z 26013G18KT 11/M01 A2997 RMK A01 T01111012  RH  043%=      5-min Rain = 0
KEN1 131553Z 26016KT 11/M01 A2997 RMK A01 T01111012  RH  042%=      5-min Rain = 0
KEN1 131554Z 25013KT 11/M01 A2997 RMK A01 T01111013  RH  042%=      5-min Rain = 0
KEN1 131555Z 26015KT 11/M01 A2997 RMK A01 T01111013  RH  042%=      5-min Rain = 0
KEN1 131556Z 26015KT 11/M01 A2997 RMK A01 T01121012  RH  042%=      5-min Rain = 0
KEN1 131557Z 26015KT 11/M01 A2997 RMK A01 T01131012  RH  042%=      5-min Rain = 0
KEN1 131558Z 25015KT 11/M01 A2997 RMK A01 T01131012  RH  042%=      5-min Rain = 0
KEN1 131559Z 26015KT 11/M01 A2996 RMK A01 T01131012  RH  042%=      5-min Rain = 0
KEN1 131600Z 26011KT 11/M01 A2996 RMK A01 T01131012  RH  042%=      5-min Rain = 0
KEN1 131601Z 26012KT 11/M01 A2996 RMK A01 T01131010  RH  042%=      5-min Rain = 0
KEN1 131602Z 26013KT 11/M01 A2996 RMK A01 T01141011  RH  042%=      5-min Rain = 0
KEN1 131603Z 26013KT 11/M01 A2997 RMK A01 T01141012  RH  042%=      5-min Rain = 0
KEN1 131604Z 26014KT 11/M01 A2997 RMK A01 T01141011  RH  042%=      5-min Rain = 0
KEN1 131605Z 26013KT 11/M01 A2997 RMK A01 T01131012  RH  042%=      5-min Rain = 0
KEN1 131606Z 26015KT 11/M01 A2997 RMK A01 T01141012  RH  042%=      5-min Rain = 0
KEN1 131607Z 26014KT 11/M01 A2997 RMK A01 T01141012  RH  042%=      5-min Rain = 0
KEN1 131608Z 26013KT 12/M01 A2997 RMK A01 T01151011  RH  042%=      5-min Rain = 0
KEN1 131609Z 26016KT 12/M01 A2997 RMK A01 T01151011  RH  042%=      5-min Rain = 0
KEN1 131610Z 26015KT 12/M01 A2997 RMK A01 T01151012  RH  041%=      5-min Rain = 0
KEN1 131611Z 26014KT 12/M01 A2997 RMK A01 T01161011  RH  041%=      5-min Rain = 0
KEN1 131612Z 26013KT 12/M01 A2997 RMK A01 T01161011  RH  041%=      5-min Rain = 0
KEN1 131613Z 26015KT 12/M01 A2997 RMK A01 T01181009  RH  041%=      5-min Rain = 0
KEN1 131614Z 26015KT 12/M01 A2997 RMK A01 T01181010  RH  041%=      5-min Rain = 0
KEN1 131615Z 26014KT 12/M01 A2997 RMK A01 T01191010  RH  041%=      5-min Rain = 0
KEN1 131616Z 26015KT 12/M01 A2997 RMK A01 T01201010  RH  041%=      5-min Rain = 0
KEN1 131617Z 26015KT 12/M01 A2997 RMK A01 T01211010  RH  040%=      5-min Rain = 0
KEN1 131618Z 26016KT 12/M01 A2997 RMK A01 T01211010  RH  040%=      5-min Rain = 0
KEN1 131619Z 26017KT 12/M01 A2997 RMK A01 T01211010  RH  040%=      5-min Rain = 0
KEN1 131620Z 26016KT 12/M01 A2997 RMK A01 T01221010  RH  040%=      5-min Rain = 0
KEN1 131621Z 27016KT 12/M01 A2998 RMK A01 T01221010  RH  040%=      5-min Rain = 0
KEN1 131622Z 26015KT 12/M01 A2997 RMK A01 T01221011  RH  040%=      5-min Rain = 0
KEN1 131623Z 26014KT 12/M01 A2997 RMK A01 T01231009  RH  040%=      5-min Rain = 0
KEN1 131624Z 26015KT 12/M01 A2997 RMK A01 T01241008  RH  040%=      5-min Rain = 0
KEN1 131625Z 26014KT 13/M01 A2997 RMK A01 T01251008  RH  040%=      5-min Rain = 0
KEN1 131626Z 26015KT 13/M01 A2997 RMK A01 T01251009  RH  039%=      5-min Rain = 0
KEN1 131627Z 26014KT 12/M01 A2997 RMK A01 T01241010  RH  039%=      5-min Rain = 0
KEN1 131628Z 26012KT 13/M01 A2998 RMK A01 T01251008  RH  040%=      5-min Rain = 0
KEN1 131629Z 26015KT 13/M01 A2998 RMK A01 T01261008  RH  040%=      5-min Rain = 0
KEN1 131630Z 26016KT 13/M01 A2998 RMK A01 T01261009  RH  039%=      5-min Rain = 0
KEN1 131631Z 26015KT 13/M01 A2998 RMK A01 T01271009  RH  039%=      5-min Rain = 0
KEN1 131632Z 26018KT 13/M01 A2998 RMK A01 T01271009  RH  039%=      5-min Rain = 0
KEN1 131633Z 27016KT 13/M01 A2998 RMK A01 T01281010  RH  039%=      5-min Rain = 0
KEN1 131634Z 26014KT 13/M01 A2998 RMK A01 T01281009  RH  039%=      5-min Rain = 0
KEN1 131635Z 26017KT 13/M01 A2997 RMK A01 T01291009  RH  038%=      5-min Rain = 0
KEN1 131636Z 26018KT 13/M01 A2997 RMK A01 T01301010  RH  038%=      5-min Rain = 0
KEN1 131637Z 26017KT 13/M01 A2997 RMK A01 T01291010  RH  038%=      5-min Rain = 0
KEN1 131638Z 26017KT 13/M01 A2997 RMK A01 T01301009  RH  038%=      5-min Rain = 0
KEN1 131639Z 26018KT 13/M01 A2998 RMK A01 T01311009  RH  038%=      5-min Rain = 0
KEN1 131640Z 26015KT 13/M01 A2998 RMK A01 T01311009  RH  038%=      5-min Rain = 0
KEN1 131641Z 26016KT 13/M01 A2997 RMK A01 T01321007  RH  038%=      5-min Rain = 0
KEN1 131642Z 26013KT 13/M01 A2997 RMK A01 T01331009  RH  038%=      5-min Rain = 0
KEN1 131643Z 26015KT 13/M01 A2997 RMK A01 T01341006  RH  038%=      5-min Rain = 0
KEN1 131644Z 27017KT 14/M01 A2997 RMK A01 T01351008  RH  037%=      5-min Rain = 0
KEN1 131645Z 26020KT 14/M01 A2997 RMK A01 T01351009  RH  037%=      5-min Rain = 0
KEN1 131646Z 26017G22KT 13/M01 A2997 RMK A01 T01341010  RH  037%=      5-min Rain = 0
KEN1 131647Z 26017KT 13/M01 A2997 RMK A01 T01341009  RH  037%=      5-min Rain = 0
KEN1 131648Z 27016KT 13/M01 A2997 RMK A01 T01341010  RH  037%=      5-min Rain = 0
KEN1 131649Z 27017KT 14/M01 A2997 RMK A01 T01351009  RH  037%=      5-min Rain = 0
KEN1 131650Z 27016KT 14/M01 A2997 RMK A01 T01351009  RH  037%=      5-min Rain = 0
KEN1 131651Z 27016KT 14/M01 A2997 RMK A01 T01351009  RH  037%=      5-min Rain = 0
KEN1 131652Z 27019G24KT 14/M01 A2997 RMK A01 T01351008  RH  037%=      5-min Rain = 0
KEN1 131653Z 27017G22KT 14/M01 A2997 RMK A01 T01351009  RH  037%=      5-min Rain = 0
KEN1 131654Z 27020KT 14/M01 A2997 RMK A01 T01361010  RH  037%=      5-min Rain = 0
KEN1 131655Z 27017KT 14/M01 A2997 RMK A01 T01351011  RH  037%=      5-min Rain = 0
KEN1 131656Z 27019G25KT 14/M01 A2997 RMK A01 T01361009  RH  037%=      5-min Rain = 0
KEN1 131657Z 27017KT 14/M01 A2997 RMK A01 T01371009  RH  036%=      5-min Rain = 0
KEN1 131658Z 27017KT 14/M01 A2997 RMK A01 T01371010  RH  036%=      5-min Rain = 0
KEN1 131659Z 27018KT 14/M01 A2997 RMK A01 T01371010  RH  036%=      5-min Rain = 0
KEN1 131700Z 27019KT 14/M01 A2997 RMK A01 T01371010  RH  036%=      5-min Rain = 0
KEN1 131701Z 26020KT 14/M01 A2997 RMK A01 T01371010  RH  036%=      5-min Rain = 0
KEN1 131702Z 27015KT 14/M01 A2997 RMK A01 T01371011  RH  036%=      5-min Rain = 0
KEN1 131703Z 26018KT 14/M01 A2997 RMK A01 T01381010  RH  036%=      5-min Rain = 0
KEN1 131704Z 27015G21KT 14/M01 A2997 RMK A01 T01381010  RH  036%=      5-min Rain = 0
KEN1 131705Z 28018KT 14/M01 A2997 RMK A01 T01381010  RH  036%=      5-min Rain = 0
KEN1 131706Z 27015KT 14/M01 A2997 RMK A01 T01371009  RH  036%=      5-min Rain = 0
KEN1 131707Z 27018KT 14/M01 A2997 RMK A01 T01391008  RH  036%=      5-min Rain = 0
KEN1 131708Z 26016KT 14/M01 A2997 RMK A01 T01391009  RH  036%=      5-min Rain = 0
KEN1 131709Z 27017KT 14/M01 A2996 RMK A01 T01401009  RH  036%=      5-min Rain = 0
KEN1 131710Z 27016G21KT 14/M01 A2996 RMK A01 T01401007  RH  036%=      5-min Rain = 0
KEN1 131711Z 28019KT 14/M01 A2996 RMK A01 T01421007  RH  036%=      5-min Rain = 0
KEN1 131712Z 27016KT 14/M01 A2996 RMK A01 T01421008  RH  036%=      5-min Rain = 0
KEN1 131713Z 28015G20KT 14/M01 A2996 RMK A01 T01421007  RH  036%=      5-min Rain = 0
KEN1 131714Z 27017KT 14/M01 A2996 RMK A01 T01431007  RH  036%=      5-min Rain = 0
KEN1 131715Z 27018G23KT 14/M01 A2996 RMK A01 T01431006  RH  036%=      5-min Rain = 0
KEN1 131716Z 27016G21KT 14/M01 A2996 RMK A01 T01441006  RH  036%=      5-min Rain = 0
KEN1 131717Z 28018KT 15/M01 A2996 RMK A01 T01451007  RH  035%=      5-min Rain = 0
KEN1 131718Z 28018KT 15/M01 A2996 RMK A01 T01451008  RH  035%=      5-min Rain = 0
KEN1 131719Z 28019KT 15/M01 A2996 RMK A01 T01451008  RH  035%=      5-min Rain = 0
KEN1 131720Z 27018KT 15/M01 A2996 RMK A01 T01461009  RH  034%=      5-min Rain = 0
KEN1 131721Z 28016KT 15/M01 A2996 RMK A01 T01471009  RH  034%=      5-min Rain = 0
KEN1 131722Z 27017KT 15/M01 A2996 RMK A01 T01481008  RH  034%=      5-min Rain = 0
KEN1 131723Z 27018KT 15/M01 A2996 RMK A01 T01491008  RH  034%=      5-min Rain = 0
KEN1 131724Z 28018KT 15/M01 A2996 RMK A01 T01481009  RH  034%=      5-min Rain = 0
KEN1 131725Z 29020KT 15/M01 A2996 RMK A01 T01481008  RH  034%=      5-min Rain = 0
KEN1 131726Z 28021KT 15/M01 A2997 RMK A01 T01471010  RH  034%=      5-min Rain = 0
KEN1 131727Z 29021KT 15/M01 A2997 RMK A01 T01471010  RH  034%=      5-min Rain = 0
KEN1 131728Z 28018KT 15/M01 A2996 RMK A01 T01471010  RH  034%=      5-min Rain = 0
KEN1 131729Z 28017KT 15/M01 A2996 RMK A01 T01491009  RH  034%=      5-min Rain = 0
KEN1 131730Z 28021KT 15/M01 A2996 RMK A01 T01491009  RH  034%=      5-min Rain = 0
KEN1 131731Z 28018KT 15/M01 A2996 RMK A01 T01491008  RH  034%=      5-min Rain = 0
KEN1 131732Z 27018KT 15/M01 A2996 RMK A01 T01491008  RH  034%=      5-min Rain = 0
KEN1 131733Z 28016G21KT 15/M01 A2996 RMK A01 T01501009  RH  034%=      5-min Rain = 0
KEN1 131734Z 28020G25KT 15/M01 A2996 RMK A01 T01511006  RH  034%=      5-min Rain = 0
KEN1 131735Z 27019KT 15/M01 A2996 RMK A01 T01511008  RH  033%=      5-min Rain = 0
KEN1 131736Z 28021KT 15/M01 A2996 RMK A01 T01521009  RH  033%=      5-min Rain = 0
KEN1 131737Z 28020KT 15/M01 A2996 RMK A01 T01511009  RH  033%=      5-min Rain = 0
KEN1 131738Z 27019KT 15/M01 A2996 RMK A01 T01511009  RH  033%=      5-min Rain = 0
KEN1 131739Z 28020KT 15/M01 A2996 RMK A01 T01511009  RH  033%=      5-min Rain = 0
KEN1 131740Z 27019KT 15/M01 A2996 RMK A01 T01511009  RH  033%=      5-min Rain = 0
KEN1 131741Z 28017KT 15/M01 A2996 RMK A01 T01521008  RH  033%=      5-min Rain = 0
KEN1 131742Z 27019KT 15/M01 A2996 RMK A01 T01531008  RH  033%=      5-min Rain = 0
KEN1 131743Z 28019KT 15/M01 A2996 RMK A01 T01531008  RH  033%=      5-min Rain = 0
KEN1 131744Z 28015KT 15/M01 A2996 RMK A01 T01541006  RH  033%=      5-min Rain = 0
KEN1 131745Z 28017G22KT 16/M01 A2996 RMK A01 T01571005  RH  033%=      5-min Rain = 0
KEN1 131746Z 28019KT 16/M01 A2995 RMK A01 T01581009  RH  032%=      5-min Rain = 0
KEN1 131747Z 28018G23KT 16/M01 A2995 RMK A01 T01571009  RH  032%=      5-min Rain = 0
KEN1 131748Z 28017KT 16/M01 A2995 RMK A01 T01581008  RH  032%=      5-min Rain = 0
KEN1 131749Z 29016KT 16/M01 A2994 RMK A01 T01581009  RH  032%=      5-min Rain = 0
KEN1 131750Z 27017KT 16/M01 A2995 RMK A01 T01591008  RH  032%=      5-min Rain = 0
KEN1 131751Z 28017KT 16/M01 A2995 RMK A01 T01591010  RH  031%=      5-min Rain = 0
KEN1 131752Z 28016KT 16/M01 A2995 RMK A01 T01591008  RH  032%=      5-min Rain = 0
KEN1 131753Z 28020KT 16/M01 A2995 RMK A01 T01601008  RH  032%=      5-min Rain = 0
KEN1 131754Z 27020KT 16/M01 A2995 RMK A01 T01591011  RH  031%=      5-min Rain = 0
KEN1 131755Z 28017KT 16/M01 A2995 RMK A01 T01581010  RH  032%=      5-min Rain = 0
KEN1 131756Z 28019KT 16/M01 A2995 RMK A01 T01591011  RH  031%=      5-min Rain = 0
KEN1 131757Z 28018KT 16/M01 A2994 RMK A01 T01591011  RH  031%=      5-min Rain = 0
KEN1 131758Z 27019G24KT 16/M01 A2994 RMK A01 T01601012  RH  031%=      5-min Rain = 0
KEN1 131759Z 27019G24KT 16/M01 A2993 RMK A01 T01611011  RH  031%=      5-min Rain = 0
KEN1 131800Z 29022G27KT 16/M01 A2993 RMK A01 T01611012  RH  030%=      5-min Rain = 0
KEN1 131801Z 29019KT 16/M01 A2993 RMK A01 T01611014  RH  030%=      5-min Rain = 0
KEN1 131802Z 29021KT 16/M01 A2993 RMK A01 T01621012  RH  030%=      5-min Rain = 0
KEN1 131803Z 29020KT 16/M01 A2993 RMK A01 T01631013  RH  030%=      5-min Rain = 0
KEN1 131804Z 29022KT 16/M01 A2993 RMK A01 T01641014  RH  030%=      5-min Rain = 0
KEN1 131805Z 28020KT 16/M01 A2993 RMK A01 T01641014  RH  030%=      5-min Rain = 0
KEN1 131806Z 29021KT 17/M01 A2994 RMK A01 T01651014  RH  029%=      5-min Rain = 0
KEN1 131807Z 29020KT 17/M01 A2993 RMK A01 T01651014  RH  029%=      5-min Rain = 0
KEN1 131808Z 30022KT 17/M02 A2993 RMK A01 T01661015  RH  029%=      5-min Rain = 0
KEN1 131809Z 30022G27KT 17/M02 A2994 RMK A01 T01661020  RH  028%=      5-min Rain = 0
KEN1 131810Z 30018KT 17/M02 A2994 RMK A01 T01651019  RH  028%=      5-min Rain = 0
KEN1 131811Z 30017KT 17/M02 A2994 RMK A01 T01661017  RH  029%=      5-min Rain = 0
KEN1 131812Z 29023G29KT 17/M02 A2994 RMK A01 T01681018  RH  028%=      5-min Rain = 0
KEN1 131813Z 30021KT 17/M02 A2993 RMK A01 T01681019  RH  028%=      5-min Rain = 0
KEN1 131814Z 30021KT 17/M02 A2993 RMK A01 T01681018  RH  028%=      5-min Rain = 0
KEN1 131815Z 29021KT 17/M02 A2993 RMK A01 T01691020  RH  027%=      5-min Rain = 0
KEN1 131816Z 30019G24KT 17/M02 A2993 RMK A01 T01701021  RH  027%=      5-min Rain = 0
KEN1 131817Z 30021G26KT 17/M02 A2993 RMK A01 T01711023  RH  027%=      5-min Rain = 0
KEN1 131818Z 30018KT 17/M02 A2993 RMK A01 T01711024  RH  026%=      5-min Rain = 0
KEN1 131819Z 30022G29KT 17/M02 A2993 RMK A01 T01721023  RH  026%=      5-min Rain = 0
KEN1 131820Z 30021KT 17/M02 A2993 RMK A01 T01711024  RH  026%=      5-min Rain = 0
KEN1 131821Z 31025G30KT 17/M02 A2993 RMK A01 T01701023  RH  027%=      5-min Rain = 0
KEN1 131822Z 30021G27KT 17/M02 A2993 RMK A01 T01701024  RH  026%=      5-min Rain = 0
KEN1 131823Z 30019G24KT 17/M03 A2993 RMK A01 T01691025  RH  026%=      5-min Rain = 0
KEN1 131824Z 29020KT 17/M02 A2993 RMK A01 T01711022  RH  027%=      5-min Rain = 0
KEN1 131825Z 30022KT 17/M02 A2993 RMK A01 T01721023  RH  026%=      5-min Rain = 0
KEN1 131826Z 30021KT 17/M02 A2993 RMK A01 T01721023  RH  026%=      5-min Rain = 0
KEN1 131827Z 30020KT 17/M02 A2993 RMK A01 T01721022  RH  027%=      5-min Rain = 0
KEN1 131828Z 30019G24KT 17/M02 A2993 RMK A01 T01721024  RH  026%=      5-min Rain = 0
KEN1 131829Z 31019G24KT 17/M03 A2993 RMK A01 T01731026  RH  026%=      5-min Rain = 0
KEN1 131830Z 30021KT 17/M02 A2993 RMK A01 T01741023  RH  026%=      5-min Rain = 0
KEN1 131831Z 31022G27KT 17/M02 A2993 RMK A01 T01741024  RH  026%=      5-min Rain = 0
KEN1 131832Z 30022KT 17/M02 A2993 RMK A01 T01731024  RH  026%=      5-min Rain = 0
KEN1 131833Z 30021KT 17/M03 A2993 RMK A01 T01741025  RH  026%=      5-min Rain = 0
KEN1 131834Z 31021KT 17/M02 A2993 RMK A01 T01731023  RH  026%=      5-min Rain = 0
KEN1 131835Z 31020KT 18/M02 A2993 RMK A01 T01751021  RH  026%=      5-min Rain = 0
KEN1 131836Z 31021G26KT 18/M02 A2993 RMK A01 T01761023  RH  026%=      5-min Rain = 0
KEN1 131837Z 31020G25KT 18/M02 A2992 RMK A01 T01761024  RH  025%=      5-min Rain = 0
KEN1 131838Z 32022KT 18/M03 A2992 RMK A01 T01751029  RH  025%=      5-min Rain = 0
KEN1 131839Z 32019KT 17/M03 A2992 RMK A01 T01731030  RH  025%=      5-min Rain = 0
KEN1 131840Z 31016KT 17/M03 A2992 RMK A01 T01731029  RH  025%=      5-min Rain = 0
KEN1 131841Z 31018KT 17/M03 A2992 RMK A01 T01731028  RH  025%=      5-min Rain = 0
KEN1 131842Z 31022KT 17/M03 A2992 RMK A01 T01741028  RH  025%=      5-min Rain = 0
KEN1 131843Z 32019KT 17/M03 A2992 RMK A01 T01741029  RH  025%=      5-min Rain = 0
KEN1 131844Z 32020KT 17/M03 A2992 RMK A01 T01741029  RH  025%=      5-min Rain = 0
KEN1 131845Z 32018KT 17/M03 A2992 RMK A01 T01741028  RH  025%=      5-min Rain = 0
KEN1 131846Z 32015KT 18/M03 A2992 RMK A01 T01751027  RH  025%=      5-min Rain = 0
KEN1 131847Z 31020G27KT 18/M03 A2992 RMK A01 T01761026  RH  025%=      5-min Rain = 0
KEN1 131848Z 31021KT 18/M03 A2992 RMK A01 T01781033  RH  024%=      5-min Rain = 0
KEN1 131849Z 32018G23KT 18/M03 A2992 RMK A01 T01781034  RH  023%=      5-min Rain = 0
KEN1 131850Z 31017G23KT 18/M03 A2991 RMK A01 T01791034  RH  023%=      5-min Rain = 0
KEN1 131851Z 31015KT 18/M03 A2991 RMK A01 T01801032  RH  023%=      5-min Rain = 0
KEN1 131852Z 32016KT 18/M03 A2991 RMK A01 T01811032  RH  023%=      5-min Rain = 0
KEN1 131853Z 32014G19KT 18/M03 A2991 RMK A01 T01821030  RH  024%=      5-min Rain = 0
KEN1 131854Z 31019G26KT 18/M03 A2991 RMK A01 T01831030  RH  023%=      5-min Rain = 0
KEN1 131855Z 31017G22KT 18/M04 A2991 RMK A01 T01831037  RH  022%=      5-min Rain = 0
KEN1 131856Z 30020KT 18/M04 A2991 RMK A01 T01821036  RH  022%=      5-min Rain = 0
KEN1 131857Z 31018KT 18/M04 A2991 RMK A01 T01821037  RH  022%=      5-min Rain = 0
KEN1 131858Z 31018G24KT 18/M04 A2991 RMK A01 T01821038  RH  022%=      5-min Rain = 0
KEN1 131859Z 31021KT 18/M04 A2991 RMK A01 T01831036  RH  022%=      5-min Rain = 0
KEN1 131900Z 31021KT 18/M04 A2991 RMK A01 T01821038  RH  022%=      5-min Rain = 0
KEN1 131901Z 31018KT 18/M04 A2991 RMK A01 T01791038  RH  022%=      5-min Rain = 0
KEN1 131902Z 30020G25KT 18/M04 A2991 RMK A01 T01811035  RH  023%=      5-min Rain = 0
KEN1 131903Z 30022KT 18/M04 A2992 RMK A01 T01811036  RH  023%=      5-min Rain = 0
KEN1 131904Z 31021KT 18/M04 A2991 RMK A01 T01821035  RH  023%=      5-min Rain = 0
KEN1 131905Z 30018KT 18/M04 A2991 RMK A01 T01811036  RH  023%=      5-min Rain = 0
KEN1 131906Z 32015KT 18/M03 A2991 RMK A01 T01811034  RH  023%=      5-min Rain = 0
KEN1 131907Z 32019KT 18/M03 A2991 RMK A01 T01841033  RH  023%=      5-min Rain = 0
KEN1 131908Z 32019G24KT 18/M04 A2991 RMK A01 T01841036  RH  022%=      5-min Rain = 0
KEN1 131909Z 31019G25KT 18/M04 A299 RMK A01 T01821036  RH  022%=      5-min Rain = 0
KEN1 131910Z 30018KT 18/M03 A299 RMK A01 T01831034  RH  023%=      5-min Rain = 0
KEN1 131911Z 30025KT 18/M03 A299 RMK A01 T01831034  RH  023%=      5-min Rain = 0
KEN1 131912Z 31023KT 18/M04 A299 RMK A01 T01811035  RH  023%=      5-min Rain = 0
KEN1 131913Z 30017KT 18/M04 A299 RMK A01 T01771037  RH  023%=      5-min Rain = 0
KEN1 131914Z 30020G25KT 18/M04 A299 RMK A01 T01761035  RH  023%=      5-min Rain = 0
KEN1 131915Z 30020KT 18/M04 A299 RMK A01 T01751037  RH  023%=      5-min Rain = 0
KEN1 131916Z 31020KT 17/M04 A299 RMK A01 T01731036  RH  024%=      5-min Rain = 0
KEN1 131917Z 31018KT 17/M04 A299 RMK A01 T01721036  RH  024%=      5-min Rain = 0
KEN1 131918Z 30017KT 17/M04 A299 RMK A01 T01711035  RH  024%=      5-min Rain = 0
KEN1 131919Z 30015G20KT 17/M03 A299 RMK A01 T01711034  RH  024%=      5-min Rain = 0
KEN1 131920Z 30020KT 17/M03 A299 RMK A01 T01731033  RH  024%=      5-min Rain = 0
KEN1 131921Z 31019KT 17/M03 A299 RMK A01 T01741033  RH  024%=      5-min Rain = 0
KEN1 131922Z 31019KT 18/M03 A299 RMK A01 T01751033  RH  024%=      5-min Rain = 0
KEN1 131923Z 31021KT 18/M03 A299 RMK A01 T01771032  RH  024%=      5-min Rain = 0
KEN1 131924Z 31020G25KT 18/M03 A299 RMK A01 T01791031  RH  024%=      5-min Rain = 0
KEN1 131925Z 31021KT 18/M03 A299 RMK A01 T01791032  RH  023%=      5-min Rain = 0
KEN1 131926Z 30019KT 18/M03 A299 RMK A01 T01791033  RH  023%=      5-min Rain = 0
KEN1 131927Z 30017KT 18/M03 A299 RMK A01 T01791033  RH  023%=      5-min Rain = 0
KEN1 131928Z 30016KT 18/M03 A299 RMK A01 T01791032  RH  024%=      5-min Rain = 0
KEN1 131929Z 30016KT 18/M03 A299 RMK A01 T01801032  RH  023%=      5-min Rain = 0
KEN1 131930Z 30018G23KT 18/M03 A299 RMK A01 T01811030  RH  024%=      5-min Rain = 0
KEN1 131931Z 30017G22KT 18/M03 A299 RMK A01 T01821031  RH  023%=      5-min Rain = 0
KEN1 131932Z 31013KT 18/M03 A299 RMK A01 T01821031  RH  023%=      5-min Rain = 0
KEN1 131933Z 31015KT 18/M03 A2989 RMK A01 T01831030  RH  023%=      5-min Rain = 0
KEN1 131934Z 31015G21KT 18/M03 A2989 RMK A01 T01831030  RH  023%=      5-min Rain = 0
KEN1 131935Z 31016KT 18/M03 A2989 RMK A01 T01841028  RH  023%=      5-min Rain = 0
KEN1 131936Z 31018KT 19/M03 A2989 RMK A01 T01851029  RH  023%=      5-min Rain = 0
KEN1 131937Z 32015KT 18/M03 A2989 RMK A01 T01841028  RH  024%=      5-min Rain = 0
KEN1 131938Z 32017KT 19/M03 A2989 RMK A01 T01851027  RH  024%=      5-min Rain = 0
KEN1 131939Z 32015KT 19/M03 A2989 RMK A01 T01851028  RH  023%=      5-min Rain = 0
KEN1 131940Z 32015KT 19/M03 A2989 RMK A01 T01861028  RH  023%=      5-min Rain = 0
KEN1 131941Z 32016KT 19/M03 A2989 RMK A01 T01871027  RH  023%=      5-min Rain = 0
KEN1 131942Z 32016KT 19/M03 A2989 RMK A01 T01861029  RH  023%=      5-min Rain = 0
KEN1 131943Z 32011KT 18/M03 A2989 RMK A01 T01841030  RH  023%=      5-min Rain = 0
KEN1 131944Z 31016KT 18/M03 A2989 RMK A01 T01841027  RH  024%=      5-min Rain = 0
KEN1 131945Z 32015KT 19/M03 A2989 RMK A01 T01851028  RH  023%=      5-min Rain = 0
KEN1 131946Z 32015KT 19/M03 A2989 RMK A01 T01851027  RH  024%=      5-min Rain = 0
KEN1 131947Z 32013KT 19/M03 A2989 RMK A01 T01851029  RH  023%=      5-min Rain = 0
KEN1 131948Z 32012KT 19/M03 A2989 RMK A01 T01851030  RH  023%=      5-min Rain = 0
KEN1 131949Z 31012G17KT 19/M03 A2989 RMK A01 T01861027  RH  023%=      5-min Rain = 0
KEN1 131950Z 30012KT 19/M03 A2989 RMK A01 T01891025  RH  023%=      5-min Rain = 0
KEN1 131951Z 31016G21KT 19/M03 A2989 RMK A01 T01901026  RH  023%=      5-min Rain = 0
KEN1 131952Z 31017KT 19/M03 A2989 RMK A01 T01901026  RH  023%=      5-min Rain = 0
KEN1 131953Z 31015KT 19/M03 A2988 RMK A01 T01881028  RH  023%=      5-min Rain = 0
KEN1 131954Z 32015KT 19/M03 A2989 RMK A01 T01861028  RH  023%=      5-min Rain = 0
KEN1 131955Z 32013KT 19/M03 A2988 RMK A01 T01861028  RH  023%=      5-min Rain = 0
KEN1 131956Z 31011KT 19/M03 A2988 RMK A01 T01861027  RH  023%=      5-min Rain = 0
KEN1 131957Z 31010KT 19/M03 A2988 RMK A01 T01861028  RH  023%=      5-min Rain = 0
KEN1 131958Z 31012KT 19/M03 A2988 RMK A01 T01871025  RH  024%=      5-min Rain = 0
KEN1 131959Z 30011KT 19/M03 A2988 RMK A01 T01891026  RH  023%=      5-min Rain = 0
KEN1 132000Z 30015KT 19/M03 A2988 RMK A01 T01891027  RH  023%=      5-min Rain = 0
KEN1 132001Z 29011KT 19/M03 A2988 RMK A01 T01871029  RH  023%=      5-min Rain = 0
KEN1 132002Z 28014KT 19/M03 A2988 RMK A01 T01871028  RH  023%=      5-min Rain = 0
KEN1 132003Z 29011KT 19/M03 A2988 RMK A01 T01871028  RH  023%=      5-min Rain = 0
KEN1 132004Z 28019KT 19/M03 A2988 RMK A01 T01881026  RH  023%=      5-min Rain = 0
KEN1 132005Z 29017G24KT 19/M03 A2989 RMK A01 T01891025  RH  023%=      5-min Rain = 0
KEN1 132006Z 29018KT 19/M02 A2988 RMK A01 T01881024  RH  024%=      5-min Rain = 0
KEN1 132007Z 29017KT 19/M03 A2988 RMK A01 T01881025  RH  024%=      5-min Rain = 0
KEN1 132008Z 28015KT 19/M02 A2988 RMK A01 T01881024  RH  024%=      5-min Rain = 0
KEN1 132009Z 28015KT 19/M02 A2988 RMK A01 T01881024  RH  024%=      5-min Rain = 0
KEN1 132010Z 27016KT 19/M03 A2988 RMK A01 T01881026  RH  023%=      5-min Rain = 0
KEN1 132011Z 27016KT 19/M03 A2988 RMK A01 T01901025  RH  023%=      5-min Rain = 0
KEN1 132012Z 27018G24KT 19/M03 A2988 RMK A01 T01911027  RH  023%=      5-min Rain = 0
KEN1 132013Z 27016KT 19/M03 A2988 RMK A01 T01901027  RH  023%=      5-min Rain = 0
KEN1 132014Z 27017KT 19/M03 A2988 RMK A01 T01891027  RH  023%=      5-min Rain = 0
KEN1 132015Z 27016KT 19/M03 A2988 RMK A01 T01891027  RH  023%=      5-min Rain = 0
KEN1 132016Z 27014G19KT 19/M02 A2988 RMK A01 T01901024  RH  023%=      5-min Rain = 0
KEN1 132017Z 28017KT 19/M02 A2988 RMK A01 T01921024  RH  023%=      5-min Rain = 0
KEN1 132018Z 28014G21KT 19/M03 A2988 RMK A01 T01901027  RH  023%=      5-min Rain = 0
KEN1 132019Z 29018KT 19/M03 A2988 RMK A01 T01881028  RH  023%=      5-min Rain = 0
KEN1 132020Z 29016KT 19/M03 A2988 RMK A01 T01891027  RH  023%=      5-min Rain = 0
KEN1 132021Z 30013KT 19/M03 A2987 RMK A01 T01871031  RH  023%=      5-min Rain = 0
KEN1 132022Z 29013KT 19/M03 A2987 RMK A01 T01851031  RH  023%=      5-min Rain = 0
KEN1 132023Z 29015G20KT 19/M03 A2987 RMK A01 T01851032  RH  023%=      5-min Rain = 0
KEN1 132024Z 28019KT 19/M03 A2987 RMK A01 T01851032  RH  023%=      5-min Rain = 0
KEN1 132025Z 29015KT 19/M03 A2988 RMK A01 T01851032  RH  023%=      5-min Rain = 0
KEN1 132026Z 29016KT 19/M03 A2988 RMK A01 T01851031  RH  023%=      5-min Rain = 0
KEN1 132027Z 29012KT 19/M03 A2988 RMK A01 T01861028  RH  023%=      5-min Rain = 0
KEN1 132028Z 30012G19KT 19/M03 A2988 RMK A01 T01871028  RH  023%=      5-min Rain = 0
KEN1 132029Z 30018KT 19/M03 A2988 RMK A01 T01871033  RH  022%=      5-min Rain = 0
KEN1 132030Z 30016KT 19/M04 A2988 RMK A01 T01861036  RH  022%=      5-min Rain = 0
KEN1 132031Z 31014KT 19/M04 A2988 RMK A01 T01851041  RH  021%=      5-min Rain = 0
KEN1 132032Z 32013KT 18/M04 A2988 RMK A01 T01841042  RH  021%=      5-min Rain = 0
KEN1 132033Z 31015KT 19/M04 A2987 RMK A01 T01851042  RH  021%=      5-min Rain = 0
KEN1 132034Z 32017KT 19/M04 A2987 RMK A01 T01851044  RH  021%=      5-min Rain = 0
KEN1 132035Z 32017KT 19/M04 A2987 RMK A01 T01851044  RH  021%=      5-min Rain = 0
KEN1 132036Z 32021KT 19/M05 A2987 RMK A01 T01851046  RH  020%=      5-min Rain = 0
KEN1 132037Z 32018KT 19/M05 A2987 RMK A01 T01861047  RH  020%=      5-min Rain = 0
KEN1 132038Z 32016KT 19/M05 A2987 RMK A01 T01861046  RH  020%=      5-min Rain = 0
KEN1 132039Z 32017KT 19/M05 A2987 RMK A01 T01881045  RH  020%=      5-min Rain = 0
KEN1 132040Z 31016KT 19/M05 A2987 RMK A01 T01881046  RH  020%=      5-min Rain = 0
KEN1 132041Z 31016KT 19/M04 A2987 RMK A01 T01891044  RH  020%=      5-min Rain = 0
KEN1 132042Z 31018KT 19/M05 A2987 RMK A01 T01891045  RH  020%=      5-min Rain = 0
KEN1 132043Z 32018KT 19/M05 A2987 RMK A01 T01881047  RH  020%=      5-min Rain = 0
KEN1 132044Z 32015KT 19/M05 A2987 RMK A01 T01881047  RH  020%=      5-min Rain = 0
KEN1 132045Z 32015KT 19/M05 A2987 RMK A01 T01861047  RH  020%=      5-min Rain = 0
KEN1 132046Z 32014G21KT 18/M05 A2987 RMK A01 T01821049  RH  020%=      5-min Rain = 0
KEN1 132047Z 32017KT 18/M05 A2987 RMK A01 T01801049  RH  020%=      5-min Rain = 0
KEN1 132048Z 33019KT 18/M05 A2987 RMK A01 T01801049  RH  021%=      5-min Rain = 0
KEN1 132049Z 32019KT 18/M05 A2987 RMK A01 T01831048  RH  020%=      5-min Rain = 0
KEN1 132050Z 32019KT 19/M05 A2987 RMK A01 T01871047  RH  020%=      5-min Rain = 0
KEN1 132051Z 31020KT 19/M05 A2987 RMK A01 T01901046  RH  020%=      5-min Rain = 0
KEN1 132052Z 31017KT 19/M05 A2987 RMK A01 T01901049  RH  019%=      5-min Rain = 0
KEN1 132053Z 31016KT 19/M05 A2987 RMK A01 T01901047  RH  020%=      5-min Rain = 0
KEN1 132054Z 32017KT 19/M05 A2987 RMK A01 T01911048  RH  019%=      5-min Rain = 0
KEN1 132055Z 33017KT 19/M05 A2987 RMK A01 T01911048  RH  019%=      5-min Rain = 0
KEN1 132056Z 32018KT 19/M05 A2987 RMK A01 T01921049  RH  019%=      5-min Rain = 0
KEN1 132057Z 31013KT 19/M05 A2987 RMK A01 T01911052  RH  019%=      5-min Rain = 0
KEN1 132058Z 31013KT 19/M05 A2987 RMK A01 T01911049  RH  019%=      5-min Rain = 0
KEN1 132059Z 32011KT 19/M05 A2986 RMK A01 T01921051  RH  019%=      5-min Rain = 0
KEN1 132100Z 32012KT 19/M05 A2986 RMK A01 T01921051  RH  019%=      5-min Rain = 0
KEN1 132101Z 31011KT 19/M05 A2986 RMK A01 T01921051  RH  019%=      5-min Rain = 0
KEN1 132102Z 32019KT 19/M05 A2986 RMK A01 T01931051  RH  019%=      5-min Rain = 0
KEN1 132103Z 31019KT 19/M05 A2986 RMK A01 T01931054  RH  018%=      5-min Rain = 0
KEN1 132104Z 32019KT 19/M06 A2986 RMK A01 T01921057  RH  018%=      5-min Rain = 0
KEN1 132105Z 32017KT 19/M06 A2986 RMK A01 T01911058  RH  018%=      5-min Rain = 0
KEN1 132106Z 32018KT 19/M06 A2986 RMK A01 T01911058  RH  018%=      5-min Rain = 0
KEN1 132107Z 32016KT 19/M06 A2986 RMK A01 T01911058  RH  018%=      5-min Rain = 0
KEN1 132108Z 32019G25KT 19/M06 A2986 RMK A01 T01921058  RH  018%=      5-min Rain = 0
KEN1 132109Z 31019KT 19/M06 A2986 RMK A01 T01921061  RH  017%=      5-min Rain = 0
KEN1 132110Z 32018KT 19/M06 A2986 RMK A01 T01911062  RH  017%=      5-min Rain = 0
KEN1 132111Z 33018G26KT 19/M06 A2986 RMK A01 T01911060  RH  018%=      5-min Rain = 0
KEN1 132112Z 32021KT 19/M06 A2986 RMK A01 T01921057  RH  018%=      5-min Rain = 0
KEN1 132113Z 30020KT 19/M06 A2987 RMK A01 T01921055  RH  018%=      5-min Rain = 0
KEN1 132114Z 28018G23KT 19/M05 A2987 RMK A01 T01921053  RH  019%=      5-min Rain = 0
KEN1 132115Z 29018KT 19/M05 A2987 RMK A01 T01911051  RH  019%=      5-min Rain = 0
KEN1 132116Z 30019KT 19/M05 A2987 RMK A01 T01911050  RH  019%=      5-min Rain = 0
KEN1 132117Z 29019KT 19/M05 A2987 RMK A01 T01911049  RH  019%=      5-min Rain = 0
KEN1 132118Z 29017KT 19/M05 A2987 RMK A01 T01911049  RH  019%=      5-min Rain = 0
KEN1 132119Z 29016KT 19/M05 A2987 RMK A01 T01911050  RH  019%=      5-min Rain = 0
KEN1 132120Z 30017KT 19/M05 A2987 RMK A01 T01901050  RH  019%=      5-min Rain = 0
KEN1 132121Z 30016KT 19/M05 A2987 RMK A01 T01901049  RH  019%=      5-min Rain = 0
KEN1 132122Z 30013KT 19/M05 A2987 RMK A01 T01901049  RH  019%=      5-min Rain = 0
KEN1 132123Z 29013KT 19/M05 A2987 RMK A01 T01901048  RH  019%=      5-min Rain = 0
KEN1 132124Z 31013KT 19/M05 A2987 RMK A01 T01911048  RH  019%=      5-min Rain = 0
KEN1 132125Z 31015G20KT 19/M05 A2987 RMK A01 T01911050  RH  019%=      5-min Rain = 0
KEN1 132126Z 32016KT 19/M05 A2987 RMK A01 T01921053  RH  019%=      5-min Rain = 0
KEN1 132127Z 31016KT 19/M05 A2987 RMK A01 T01911053  RH  019%=      5-min Rain = 0
KEN1 132128Z 31016KT 19/M05 A2987 RMK A01 T01921051  RH  019%=      5-min Rain = 0
KEN1 132129Z 30015KT 19/M05 A2987 RMK A01 T01921052  RH  019%=      5-min Rain = 0
KEN1 132130Z 30018KT 19/M05 A2987 RMK A01 T01921052  RH  019%=      5-min Rain = 0
KEN1 132131Z 31017KT 19/M05 A2988 RMK A01 T01921053  RH  018%=      5-min Rain = 0
KEN1 132132Z 30015KT 19/M05 A2987 RMK A01 T01911053  RH  019%=      5-min Rain = 0
KEN1 132133Z 31014G21KT 19/M05 A2987 RMK A01 T01911053  RH  019%=      5-min Rain = 0
KEN1 132134Z 30015KT 19/M05 A2988 RMK A01 T01901053  RH  019%=      5-min Rain = 0
KEN1 132135Z 30015KT 19/M05 A2988 RMK A01 T01901054  RH  019%=      5-min Rain = 0
KEN1 132136Z 30022KT 19/M05 A2988 RMK A01 T01901054  RH  019%=      5-min Rain = 0
KEN1 132137Z 31019KT 19/M06 A2988 RMK A01 T01901055  RH  019%=      5-min Rain = 0
KEN1 132138Z 32014G20KT 19/M05 A2988 RMK A01 T01901053  RH  019%=      5-min Rain = 0
KEN1 132139Z 31016KT 19/M05 A2988 RMK A01 T01901054  RH  019%=      5-min Rain = 0
KEN1 132140Z 32017KT 19/M05 A2988 RMK A01 T01901053  RH  019%=      5-min Rain = 0
KEN1 132141Z 31016KT 19/M05 A2988 RMK A01 T01911053  RH  019%=      5-min Rain = 0
KEN1 132142Z 30015KT 19/M05 A2988 RMK A01 T01911051  RH  019%=      5-min Rain = 0
KEN1 132143Z 30016KT 19/M05 A2988 RMK A01 T01921050  RH  019%=      5-min Rain = 0
KEN1 132144Z 30014KT 19/M05 A2988 RMK A01 T01911053  RH  019%=      5-min Rain = 0
KEN1 132145Z 29016KT 19/M05 A2988 RMK A01 T01911052  RH  019%=      5-min Rain = 0
KEN1 132146Z 29016KT 19/M05 A2988 RMK A01 T01901054  RH  019%=      5-min Rain = 0
KEN1 132147Z 30014KT 19/M05 A2988 RMK A01 T01901053  RH  019%=      5-min Rain = 0
KEN1 132148Z 29015G20KT 19/M05 A2988 RMK A01 T01911052  RH  019%=      5-min Rain = 0
KEN1 132149Z 29016KT 19/M05 A2988 RMK A01 T01911054  RH  019%=      5-min Rain = 0
KEN1 132150Z 29018G23KT 19/M06 A2987 RMK A01 T01911055  RH  018%=      5-min Rain = 0
KEN1 132151Z 29021KT 19/M06 A2987 RMK A01 T01911056  RH  018%=      5-min Rain = 0
KEN1 132152Z 30015KT 19/M06 A2987 RMK A01 T01891056  RH  018%=      5-min Rain = 0
KEN1 132153Z 29012KT 19/M06 A2987 RMK A01 T01891055  RH  019%=      5-min Rain = 0
KEN1 132154Z 29019KT 19/M06 A2987 RMK A01 T01891055  RH  019%=      5-min Rain = 0
KEN1 132155Z 29017KT 19/M06 A2987 RMK A01 T01891058  RH  018%=      5-min Rain = 0
KEN1 132156Z 29020G25KT 19/M06 A2987 RMK A01 T01891058  RH  018%=      5-min Rain = 0
KEN1 132157Z 29019KT 19/M06 A2988 RMK A01 T01891059  RH  018%=      5-min Rain = 0
KEN1 132158Z 29019KT 19/M06 A2988 RMK A01 T01881060  RH  018%=      5-min Rain = 0
KEN1 132159Z 29017KT 19/M06 A2988 RMK A01 T01881060  RH  018%=      5-min Rain = 0
KEN1 132200Z 29018G23KT 19/M06 A2987 RMK A01 T01881059  RH  018%=      5-min Rain = 0
KEN1 132201Z 29020KT 19/M06 A2987 RMK A01 T01881061  RH  018%=      5-min Rain = 0
KEN1 132202Z 29018KT 19/M06 A2987 RMK A01 T01881062  RH  018%=      5-min Rain = 0
KEN1 132203Z 29019KT 19/M06 A2987 RMK A01 T01881062  RH  018%=      5-min Rain = 0
KEN1 132204Z 28016G22KT 19/M06 A2987 RMK A01 T01871062  RH  018%=      5-min Rain = 0
KEN1 132205Z 29017KT 19/M06 A2987 RMK A01 T01871062  RH  018%=      5-min Rain = 0
KEN1 132206Z 29020KT 19/M06 A2988 RMK A01 T01871063  RH  018%=      5-min Rain = 0
KEN1 132207Z 29017KT 19/M06 A2988 RMK A01 T01871064  RH  018%=      5-min Rain = 0
KEN1 132208Z 30019KT 19/M06 A2988 RMK A01 T01881064  RH  018%=      5-min Rain = 0
KEN1 132209Z 30018G23KT 19/M07 A2988 RMK A01 T01871065  RH  017%=      5-min Rain = 0
KEN1 132210Z 29018KT 19/M06 A2988 RMK A01 T01871063  RH  018%=      5-min Rain = 0
KEN1 132211Z 30022KT 19/M07 A2988 RMK A01 T01871065  RH  017%=      5-min Rain = 0
KEN1 132212Z 30019KT 19/M07 A2988 RMK A01 T01871066  RH  017%=      5-min Rain = 0
KEN1 132213Z 30015G21KT 19/M07 A2988 RMK A01 T01861066  RH  017%=      5-min Rain = 0
KEN1 132214Z 29020G25KT 19/M07 A2988 RMK A01 T01871065  RH  017%=      5-min Rain = 0
KEN1 132215Z 29021KT 19/M07 A2988 RMK A01 T01871066  RH  017%=      5-min Rain = 0
KEN1 132216Z 29020KT 19/M07 A2988 RMK A01 T01861068  RH  017%=      5-min Rain = 0
KEN1 132217Z 29018KT 19/M07 A2988 RMK A01 T01861068  RH  017%=      5-min Rain = 0
KEN1 132218Z 29019KT 19/M07 A2988 RMK A01 T01851069  RH  017%=      5-min Rain = 0
KEN1 132219Z 29016G21KT 19/M07 A2988 RMK A01 T01851070  RH  017%=      5-min Rain = 0
KEN1 132220Z 30017KT 19/M07 A2988 RMK A01 T01851069  RH  017%=      5-min Rain = 0
KEN1 132221Z 31016KT 19/M07 A2988 RMK A01 T01861068  RH  017%=      5-min Rain = 0
KEN1 132222Z 30013KT 19/M07 A2988 RMK A01 T01861066  RH  017%=      5-min Rain = 0
KEN1 132223Z 30015KT 19/M07 A2988 RMK A01 T01861065  RH  018%=      5-min Rain = 0
KEN1 132224Z 30018KT 19/M07 A2988 RMK A01 T01861066  RH  017%=      5-min Rain = 0
KEN1 132225Z 30020KT 19/M07 A2988 RMK A01 T01851068  RH  017%=      5-min Rain = 0
KEN1 132226Z 30019KT 19/M07 A2988 RMK A01 T01851069  RH  017%=      5-min Rain = 0
KEN1 132227Z 30017KT 19/M07 A2988 RMK A01 T01851069  RH  017%=      5-min Rain = 0
KEN1 132228Z 30020KT 18/M07 A2988 RMK A01 T01841068  RH  017%=      5-min Rain = 0
KEN1 132229Z 30019KT 18/M07 A2988 RMK A01 T01841069  RH  017%=      5-min Rain = 0
KEN1 132230Z 30015KT 18/M07 A2988 RMK A01 T01841068  RH  017%=      5-min Rain = 0
KEN1 132231Z 29015KT 18/M07 A2988 RMK A01 T01841069  RH  017%=      5-min Rain = 0
KEN1 132232Z 30016KT 18/M07 A2988 RMK A01 T01841067  RH  017%=      5-min Rain = 0
KEN1 132233Z 30016KT 18/M07 A2988 RMK A01 T01841069  RH  017%=      5-min Rain = 0
KEN1 132234Z 30016KT 18/M07 A2988 RMK A01 T01841069  RH  017%=      5-min Rain = 0
KEN1 132235Z 29020KT 18/M07 A2989 RMK A01 T01841068  RH  017%=      5-min Rain = 0
KEN1 132236Z 29018KT 18/M07 A2989 RMK A01 T01831069  RH  017%=      5-min Rain = 0
KEN1 132237Z 29017KT 18/M07 A2989 RMK A01 T01831068  RH  017%=      5-min Rain = 0
KEN1 132238Z 29019KT 18/M07 A2989 RMK A01 T01831068  RH  017%=      5-min Rain = 0
KEN1 132239Z 29017KT 18/M07 A2989 RMK A01 T01821069  RH  017%=      5-min Rain = 0
KEN1 132240Z 29018KT 18/M07 A2989 RMK A01 T01821069  RH  017%=      5-min Rain = 0
KEN1 132241Z 29016KT 18/M07 A2989 RMK A01 T01821070  RH  017%=      5-min Rain = 0
KEN1 132242Z 30016G22KT 18/M07 A2989 RMK A01 T01811069  RH  018%=      5-min Rain = 0
KEN1 132243Z 29018KT 18/M07 A2989 RMK A01 T01811069  RH  018%=      5-min Rain = 0
KEN1 132244Z 29017KT 18/M07 A2989 RMK A01 T01811068  RH  018%=      5-min Rain = 0
KEN1 132245Z 30015KT 18/M07 A2989 RMK A01 T01811067  RH  018%=      5-min Rain = 0
KEN1 132246Z 29013KT 18/M07 A2989 RMK A01 T01811066  RH  018%=      5-min Rain = 0
KEN1 132247Z 30016G21KT 18/M07 A2989 RMK A01 T01801065  RH  018%=      5-min Rain = 0
KEN1 132248Z 29017KT 18/M07 A2989 RMK A01 T01791066  RH  018%=      5-min Rain = 0
KEN1 132249Z 29017KT 18/M07 A2989 RMK A01 T01791067  RH  018%=      5-min Rain = 0
KEN1 132250Z 29017KT 18/M07 A2989 RMK A01 T01791067  RH  018%=      5-min Rain = 0
KEN1 132251Z 29017KT 18/M07 A2989 RMK A01 T01791066  RH  018%=      5-min Rain = 0
KEN1 132252Z 29017KT 18/M07 A2989 RMK A01 T01781067  RH  018%=      5-min Rain = 0
KEN1 132253Z 29019KT 18/M07 A2989 RMK A01 T01781067  RH  018%=      5-min Rain = 0
KEN1 132254Z 29015KT 18/M07 A2989 RMK A01 T01771066  RH  018%=      5-min Rain = 0
KEN1 132255Z 29016G21KT 18/M07 A2989 RMK A01 T01761066  RH  019%=      5-min Rain = 0
KEN1 132256Z 29019KT 18/M07 A2989 RMK A01 T01761066  RH  019%=      5-min Rain = 0
KEN1 132257Z 29017KT 18/M07 A2989 RMK A01 T01761066  RH  019%=      5-min Rain = 0
KEN1 132258Z 29019KT 18/M07 A2989 RMK A01 T01761066  RH  019%=      5-min Rain = 0
KEN1 132259Z 29018KT 18/M07 A2989 RMK A01 T01761066  RH  019%=      5-min Rain = 0
KEN1 132300Z 29014KT 18/M07 A2989 RMK A01 T01751066  RH  019%=      5-min Rain = 0
KEN1 132301Z 29017KT 18/M07 A2989 RMK A01 T01751065  RH  019%=      5-min Rain = 0
KEN1 132302Z 29018KT 17/M07 A2989 RMK A01 T01741066  RH  019%=      5-min Rain = 0
KEN1 132303Z 29016G21KT 17/M07 A2989 RMK A01 T01741066  RH  019%=      5-min Rain = 0
KEN1 132304Z 29018KT 17/M07 A2989 RMK A01 T01741066  RH  019%=      5-min Rain = 0
KEN1 132305Z 29017KT 18/M07 A2989 RMK A01 T01751066  RH  019%=      5-min Rain = 0
KEN1 132306Z 29015KT 17/M07 A2989 RMK A01 T01741065  RH  019%=      5-min Rain = 0
KEN1 132307Z 29018KT 17/M07 A2989 RMK A01 T01731066  RH  019%=      5-min Rain = 0
KEN1 132308Z 29015KT 17/M07 A2989 RMK A01 T01731066  RH  019%=      5-min Rain = 0
KEN1 132309Z 29015KT 17/M07 A2989 RMK A01 T01721066  RH  019%=      5-min Rain = 0
KEN1 132310Z 29016KT 17/M07 A299 RMK A01 T01721066  RH  019%=      5-min Rain = 0
KEN1 132311Z 29014KT 17/M07 A299 RMK A01 T01711066  RH  019%=      5-min Rain = 0
KEN1 132312Z 29013KT 17/M07 A299 RMK A01 T01711066  RH  019%=      5-min Rain = 0
KEN1 132313Z 29015KT 17/M07 A299 RMK A01 T01691065  RH  020%=      5-min Rain = 0
KEN1 132314Z 30015KT 17/M07 A299 RMK A01 T01691066  RH  019%=      5-min Rain = 0
KEN1 132315Z 29014KT 17/M07 A299 RMK A01 T01681065  RH  020%=      5-min Rain = 0
KEN1 132316Z 29013KT 17/M07 A299 RMK A01 T01681066  RH  020%=      5-min Rain = 0
KEN1 132317Z 30014G19KT 17/M07 A299 RMK A01 T01671066  RH  020%=      5-min Rain = 0
KEN1 132318Z 29015KT 17/M07 A299 RMK A01 T01671066  RH  020%=      5-min Rain = 0
KEN1 132319Z 30012KT 17/M07 A299 RMK A01 T01671066  RH  020%=      5-min Rain = 0
KEN1 132320Z 30014KT 17/M07 A299 RMK A01 T01671065  RH  020%=      5-min Rain = 0
KEN1 132321Z 29015KT 17/M07 A299 RMK A01 T01661066  RH  020%=      5-min Rain = 0
KEN1 132322Z 30015KT 17/M07 A299 RMK A01 T01661066  RH  020%=      5-min Rain = 0
KEN1 132323Z 30014KT 17/M07 A299 RMK A01 T01661066  RH  020%=      5-min Rain = 0
KEN1 132324Z 30013KT 17/M07 A299 RMK A01 T01651066  RH  020%=      5-min Rain = 0
KEN1 132325Z 30014KT 16/M07 A299 RMK A01 T01641066  RH  020%=      5-min Rain = 0
KEN1 132326Z 30013KT 16/M07 A299 RMK A01 T01631065  RH  020%=      5-min Rain = 0
KEN1 132327Z 30013KT 16/M07 A299 RMK A01 T01621065  RH  020%=      5-min Rain = 0
KEN1 132328Z 30013KT 16/M07 A299 RMK A01 T01611065  RH  021%=      5-min Rain = 0
KEN1 132329Z 30013KT 16/M07 A299 RMK A01 T01601065  RH  021%=      5-min Rain = 0
KEN1 132330Z 30012KT 16/M07 A299 RMK A01 T01591066  RH  021%=      5-min Rain = 0
KEN1 132331Z 30012KT 16/M07 A299 RMK A01 T01581066  RH  021%=      5-min Rain = 0
KEN1 132332Z 30011KT 16/M07 A299 RMK A01 T01571066  RH  021%=      5-min Rain = 0
KEN1 132333Z 30013KT 16/M07 A299 RMK A01 T01561066  RH  021%=      5-min Rain = 0
KEN1 132334Z 30011KT 16/M07 A299 RMK A01 T01551068  RH  021%=      5-min Rain = 0
KEN1 132335Z 30012KT 16/M07 A299 RMK A01 T01551068  RH  021%=      5-min Rain = 0
KEN1 132336Z 30012KT 15/M07 A299 RMK A01 T01531069  RH  021%=      5-min Rain = 0
KEN1 132337Z 30012KT 15/M07 A299 RMK A01 T01531070  RH  021%=      5-min Rain = 0
KEN1 132338Z 30012KT 15/M07 A299 RMK A01 T01531071  RH  021%=      5-min Rain = 0
KEN1 132339Z 30012KT 15/M07 A299 RMK A01 T01521072  RH  021%=      5-min Rain = 0
KEN1 132340Z 30012KT 15/M07 A299 RMK A01 T01511072  RH  021%=      5-min Rain = 0
KEN1 132341Z 31012KT 15/M07 A299 RMK A01 T01501074  RH  021%=      5-min Rain = 0
KEN1 132342Z 30013KT 15/M08 A299 RMK A01 T01491075  RH  021%=      5-min Rain = 0
KEN1 132343Z 31012KT 15/M08 A299 RMK A01 T01491076  RH  020%=      5-min Rain = 0
KEN1 132344Z 30012KT 15/M08 A299 RMK A01 T01481077  RH  020%=      5-min Rain = 0
KEN1 132345Z 30011KT 15/M08 A299 RMK A01 T01481078  RH  020%=      5-min Rain = 0
KEN1 132346Z 30011KT 15/M08 A299 RMK A01 T01461078  RH  021%=      5-min Rain = 0
KEN1 132347Z 30010KT 14/M08 A299 RMK A01 T01441078  RH  021%=      5-min Rain = 0
KEN1 132348Z 30010KT 14/M08 A299 RMK A01 T01431078  RH  021%=      5-min Rain = 0
KEN1 132349Z 30010KT 14/M08 A299 RMK A01 T01421078  RH  021%=      5-min Rain = 0
KEN1 132350Z 30011KT 14/M08 A299 RMK A01 T01411078  RH  021%=      5-min Rain = 0
KEN1 132351Z 30010KT 14/M08 A299 RMK A01 T01411079  RH  021%=      5-min Rain = 0
KEN1 132352Z 30010KT 14/M08 A299 RMK A01 T01411079  RH  021%=      5-min Rain = 0
KEN1 132353Z 30009KT 14/M08 A299 RMK A01 T01401079  RH  021%=      5-min Rain = 0
KEN1 132354Z 29008KT 14/M08 A299 RMK A01 T01381078  RH  022%=      5-min Rain = 0
KEN1 132355Z 30008KT 14/M08 A299 RMK A01 T01351078  RH  022%=      5-min Rain = 0
KEN1 132356Z 29008KT 13/M08 A299 RMK A01 T01331078  RH  022%=      5-min Rain = 0
KEN1 132357Z 29008KT 13/M08 A299 RMK A01 T01311077  RH  023%=      5-min Rain = 0
KEN1 132358Z 29007KT 13/M08 A299 RMK A01 T01281076  RH  023%=      5-min Rain = 0
KEN1 132359Z 29008KT 12/M08 A299 RMK A01 T01241076  RH  024%=      5-min Rain = 0
KEN1 140000Z 29008KT 12/M08 A299 RMK A01 T01231076  RH  024%=      5-min Rain = 0
KEN1 140001Z 30008KT 12/M08 A2989 RMK A01 T01221076  RH  024%=      5-min Rain = 0
KEN1 140002Z 30007KT 12/M08 A2989 RMK A01 T01211076  RH  025%=      5-min Rain = 0
KEN1 140003Z 30007KT 12/M08 A2989 RMK A01 T01201076  RH  025%=      5-min Rain = 0
KEN1 140004Z 30007KT 12/M08 A299 RMK A01 T01191076  RH  025%=      5-min Rain = 0
KEN1 140005Z 30007KT 12/M08 A299 RMK A01 T01181076  RH  025%=      5-min Rain = 0
KEN1 140006Z 30007KT 12/M08 A299 RMK A01 T01161076  RH  025%=      5-min Rain = 0
KEN1 140007Z 29007KT 12/M08 A299 RMK A01 T01161076  RH  025%=      5-min Rain = 0
KEN1 140008Z 29007KT 12/M08 A299 RMK A01 T01151076  RH  026%=      5-min Rain = 0
KEN1 140009Z 29006KT 11/M08 A299 RMK A01 T01131076  RH  026%=      5-min Rain = 0
KEN1 140010Z 29007KT 11/M08 A299 RMK A01 T01121076  RH  026%=      5-min Rain = 0
KEN1 140011Z 29007KT 11/M08 A299 RMK A01 T01111076  RH  026%=      5-min Rain = 0
KEN1 140012Z 29007KT 11/M08 A299 RMK A01 T01111076  RH  026%=      5-min Rain = 0
KEN1 140013Z 29007KT 11/M08 A299 RMK A01 T01101075  RH  026%=      5-min Rain = 0
KEN1 140014Z 30007KT 11/M08 A2991 RMK A01 T01101076  RH  026%=      5-min Rain = 0
KEN1 140015Z 30006KT 11/M08 A2991 RMK A01 T01101076  RH  026%=      5-min Rain = 0
KEN1 140016Z 30006KT 11/M08 A2991 RMK A01 T01091076  RH  027%=      5-min Rain = 0
KEN1 140017Z 30006KT 11/M08 A2991 RMK A01 T01101075  RH  027%=      5-min Rain = 0
KEN1 140018Z 30006KT 11/M08 A2991 RMK A01 T01091075  RH  027%=      5-min Rain = 0
KEN1 140019Z 30006KT 11/M07 A2991 RMK A01 T01091074  RH  027%=      5-min Rain = 0
KEN1 140020Z 30006KT 11/M08 A2991 RMK A01 T01081075  RH  027%=      5-min Rain = 0
KEN1 140021Z 30006KT 11/M08 A2991 RMK A01 T01091075  RH  027%=      5-min Rain = 0
KEN1 140022Z 30006KT 11/M07 A2991 RMK A01 T01091074  RH  027%=      5-min Rain = 0
KEN1 140023Z 30006KT 11/M08 A2991 RMK A01 T01091075  RH  027%=      5-min Rain = 0
KEN1 140024Z 30006KT 11/M07 A2991 RMK A01 T01091074  RH  027%=      5-min Rain = 0
KEN1 140025Z 30006KT 11/M08 A2992 RMK A01 T01091075  RH  027%=      5-min Rain = 0
KEN1 140026Z 29007KT 11/M08 A2992 RMK A01 T01081075  RH  027%=      5-min Rain = 0
KEN1 140027Z 29007KT 11/M07 A2992 RMK A01 T01081074  RH  027%=      5-min Rain = 0
KEN1 140028Z 29007KT 11/M07 A2992 RMK A01 T01071074  RH  027%=      5-min Rain = 0
KEN1 140029Z 29007KT 11/M07 A2992 RMK A01 T01071074  RH  027%=      5-min Rain = 0
KEN1 140030Z 29008KT 11/M07 A2993 RMK A01 T01051073  RH  028%=      5-min Rain = 0
KEN1 140031Z 29008KT 10/M07 A2993 RMK A01 T01041073  RH  028%=      5-min Rain = 0
KEN1 140032Z 29008KT 11/M07 A2993 RMK A01 T01051072  RH  028%=      5-min Rain = 0
KEN1 140033Z 29008KT 11/M07 A2993 RMK A01 T01051071  RH  028%=      5-min Rain = 0
KEN1 140034Z 29008KT 10/M07 A2993 RMK A01 T01041069  RH  029%=      5-min Rain = 0
KEN1 140035Z 29007KT 10/M07 A2993 RMK A01 T01041069  RH  029%=      5-min Rain = 0
KEN1 140036Z 29008KT 10/M07 A2993 RMK A01 T01041068  RH  029%=      5-min Rain = 0
KEN1 140037Z 29008KT 10/M07 A2993 RMK A01 T01041067  RH  029%=      5-min Rain = 0
KEN1 140038Z 29008KT 10/M07 A2993 RMK A01 T01041067  RH  029%=      5-min Rain = 0
KEN1 140039Z 29008KT 10/M07 A2993 RMK A01 T01041067  RH  029%=      5-min Rain = 0
KEN1 140040Z 29008KT 10/M07 A2993 RMK A01 T01041066  RH  029%=      5-min Rain = 0
KEN1 140041Z 29008KT 10/M07 A2993 RMK A01 T01041066  RH  030%=      5-min Rain = 0
KEN1 140042Z 29008KT 10/M07 A2993 RMK A01 T01031066  RH  030%=      5-min Rain = 0
KEN1 140043Z 29008KT 10/M07 A2993 RMK A01 T01031066  RH  030%=      5-min Rain = 0
KEN1 140044Z 29008KT 10/M07 A2993 RMK A01 T01031066  RH  030%=      5-min Rain = 0
KEN1 140045Z 29008KT 10/M07 A2993 RMK A01 T01031066  RH  030%=      5-min Rain = 0
KEN1 140046Z 29008KT 10/M07 A2993 RMK A01 T01031065  RH  030%=      5-min Rain = 0
KEN1 140047Z 29008KT 10/M07 A2993 RMK A01 T01031065  RH  030%=      5-min Rain = 0
KEN1 140048Z 29008KT 10/M07 A2993 RMK A01 T01021065  RH  030%=      5-min Rain = 0
KEN1 140049Z 29008KT 10/M07 A2993 RMK A01 T01021065  RH  030%=      5-min Rain = 0
KEN1 140050Z 29008KT 10/M06 A2993 RMK A01 T01021064  RH  030%=      5-min Rain = 0
KEN1 140051Z 29008KT 10/M06 A2993 RMK A01 T01021064  RH  030%=      5-min Rain = 0
KEN1 140052Z 29008KT 10/M06 A2993 RMK A01 T01021064  RH  031%=      5-min Rain = 0
KEN1 140053Z 29008KT 10/M06 A2993 RMK A01 T01021063  RH  031%=      5-min Rain = 0
KEN1 140054Z 29007KT 10/M06 A2993 RMK A01 T01011063  RH  031%=      5-min Rain = 0
KEN1 140055Z 29007KT 10/M06 A2993 RMK A01 T01011063  RH  031%=      5-min Rain = 0
KEN1 140056Z 29007KT 10/M06 A2993 RMK A01 T01011064  RH  031%=      5-min Rain = 0
KEN1 140057Z 29006KT 10/M06 A2993 RMK A01 T01021063  RH  031%=      5-min Rain = 0
KEN1 140058Z 29006KT 10/M06 A2993 RMK A01 T01021063  RH  031%=      5-min Rain = 0
KEN1 140059Z 29006KT 10/M06 A2993 RMK A01 T01031063  RH  031%=      5-min Rain = 0
KEN1 140100Z 29006KT 10/M06 A2993 RMK A01 T01031062  RH  031%=      5-min Rain = 0
KEN1 140101Z 28006KT 10/M06 A2993 RMK A01 T01041062  RH  031%=      5-min Rain = 0
KEN1 140102Z 27006KT 10/M06 A2993 RMK A01 T01041062  RH  031%=      5-min Rain = 0
KEN1 140103Z 27006KT 10/M06 A2993 RMK A01 T01041061  RH  031%=      5-min Rain = 0
KEN1 140104Z 27006KT 10/M06 A2994 RMK A01 T01031060  RH  031%=      5-min Rain = 0
KEN1 140105Z 27006KT 10/M06 A2994 RMK A01 T01021059  RH  032%=      5-min Rain = 0
KEN1 140106Z 27006KT 10/M06 A2994 RMK A01 T01011059  RH  032%=      5-min Rain = 0
KEN1 140107Z 27005KT 10/M06 A2994 RMK A01 T01011059  RH  032%=      5-min Rain = 0
KEN1 140108Z 27005KT 10/M06 A2994 RMK A01 T01021059  RH  032%=      5-min Rain = 0
KEN1 140109Z 27005KT 10/M06 A2994 RMK A01 T01021059  RH  032%=      5-min Rain = 0
KEN1 140110Z 27005KT 10/M06 A2994 RMK A01 T01011058  RH  032%=      5-min Rain = 0
KEN1 140111Z 26004KT 10/M06 A2994 RMK A01 T01011057  RH  032%=      5-min Rain = 0
KEN1 140112Z 25003KT 10/M06 A2994 RMK A01 T00991057  RH  033%=      5-min Rain = 0
KEN1 140113Z 25003KT 10/M06 A2994 RMK A01 T00971058  RH  033%=      5-min Rain = 0
KEN1 140114Z 25003KT 10/M06 A2994 RMK A01 T00961058  RH  033%=      5-min Rain = 0
KEN1 140115Z 26003KT 09/M06 A2994 RMK A01 T00941059  RH  033%=      5-min Rain = 0
KEN1 140116Z 25003KT 09/M06 A2994 RMK A01 T00931059  RH  034%=      5-min Rain = 0
KEN1 140117Z 26003KT 09/M06 A2994 RMK A01 T00921060  RH  034%=      5-min Rain = 0
KEN1 140118Z 26003KT 09/M06 A2994 RMK A01 T00921059  RH  034%=      5-min Rain = 0
KEN1 140119Z 26004KT 09/M06 A2994 RMK A01 T00921058  RH  034%=      5-min Rain = 0
KEN1 140120Z 25003KT 09/M06 A2994 RMK A01 T00921057  RH  034%=      5-min Rain = 0
KEN1 140121Z 26004KT 09/M06 A2994 RMK A01 T00921058  RH  034%=      5-min Rain = 0
KEN1 140122Z 27004KT 09/M06 A2994 RMK A01 T00931059  RH  034%=      5-min Rain = 0
KEN1 140123Z 28004KT 09/M06 A2994 RMK A01 T00941058  RH  034%=      5-min Rain = 0
KEN1 140124Z 28004KT 10/M06 A2994 RMK A01 T00951057  RH  034%=      5-min Rain = 0
KEN1 140125Z 29005KT 10/M06 A2994 RMK A01 T00961057  RH  033%=      5-min Rain = 0
KEN1 140126Z 28006KT 10/M06 A2994 RMK A01 T00981056  RH  033%=      5-min Rain = 0
KEN1 140127Z 29007KT 10/M06 A2995 RMK A01 T01011055  RH  033%=      5-min Rain = 0
KEN1 140128Z 28006KT 11/M06 A2995 RMK A01 T01061055  RH  032%=      5-min Rain = 0
KEN1 140129Z 28006KT 11/M06 A2995 RMK A01 T01091056  RH  031%=      5-min Rain = 0
KEN1 140130Z 28006KT 11/M06 A2994 RMK A01 T01101056  RH  031%=      5-min Rain = 0
KEN1 140131Z 27005KT 11/M06 A2994 RMK A01 T01111056  RH  031%=      5-min Rain = 0
KEN1 140132Z 26005KT 11/M06 A2994 RMK A01 T01111056  RH  031%=      5-min Rain = 0
KEN1 140133Z 22005KT 11/M05 A2995 RMK A01 T01091053  RH  031%=      5-min Rain = 0
KEN1 140134Z 23005KT 10/M05 A2995 RMK A01 T01041053  RH  033%=      5-min Rain = 0
KEN1 140135Z 24005KT 10/M06 A2994 RMK A01 T01001056  RH  033%=      5-min Rain = 0
KEN1 140136Z 25006KT 10/M06 A2995 RMK A01 T00991056  RH  033%=      5-min Rain = 0
KEN1 140137Z 25006KT 10/M06 A2995 RMK A01 T00981056  RH  033%=      5-min Rain = 0
KEN1 140138Z 25006KT 10/M06 A2995 RMK A01 T00971056  RH  033%=      5-min Rain = 0
KEN1 140139Z 25006KT 10/M06 A2995 RMK A01 T00971056  RH  033%=      5-min Rain = 0
KEN1 140140Z 26007KT 10/M06 A2995 RMK A01 T00971057  RH  033%=      5-min Rain = 0
KEN1 140141Z 26007KT 10/M06 A2995 RMK A01 T00991058  RH  033%=      5-min Rain = 0
KEN1 140142Z 26007KT 10/M06 A2995 RMK A01 T01001058  RH  032%=      5-min Rain = 0
KEN1 140143Z 26008KT 10/M06 A2995 RMK A01 T01011058  RH  032%=      5-min Rain = 0
KEN1 140144Z 26007KT 10/M06 A2995 RMK A01 T01021057  RH  032%=      5-min Rain = 0
KEN1 140145Z 26007KT 10/M06 A2995 RMK A01 T01021056  RH  032%=      5-min Rain = 0
KEN1 140146Z 26007KT 10/M06 A2995 RMK A01 T01031055  RH  033%=      5-min Rain = 0
KEN1 140147Z 25007KT 10/M06 A2995 RMK A01 T01031055  RH  033%=      5-min Rain = 0
KEN1 140148Z 26007KT 10/M06 A2995 RMK A01 T01031055  RH  032%=      5-min Rain = 0
KEN1 140149Z 25007KT 10/M06 A2995 RMK A01 T01031055  RH  032%=      5-min Rain = 0
KEN1 140150Z 26007KT 10/M06 A2995 RMK A01 T01031055  RH  032%=      5-min Rain = 0
KEN1 140151Z 26007KT 10/M06 A2995 RMK A01 T01041056  RH  032%=      5-min Rain = 0
KEN1 140152Z 26008KT 10/M06 A2995 RMK A01 T01041057  RH  032%=      5-min Rain = 0
KEN1 140153Z 26007KT 11/M06 A2994 RMK A01 T01061057  RH  031%=      5-min Rain = 0
KEN1 140154Z 26006KT 11/M06 A2994 RMK A01 T01081057  RH  031%=      5-min Rain = 0
KEN1 140155Z 25006KT 11/M06 A2993 RMK A01 T01081057  RH  031%=      5-min Rain = 0
KEN1 140156Z 25006KT 11/M06 A2993 RMK A01 T01081058  RH  031%=      5-min Rain = 0
KEN1 140157Z 25007KT 11/M06 A2993 RMK A01 T01081058  RH  031%=      5-min Rain = 0
KEN1 140158Z 26006KT 11/M06 A2993 RMK A01 T01081059  RH  030%=      5-min Rain = 0
KEN1 140159Z 26007KT 11/M06 A2993 RMK A01 T01081059  RH  030%=      5-min Rain = 0
KEN1 140200Z 27006KT 11/M06 A2993 RMK A01 T01081058  RH  031%=      5-min Rain = 0
KEN1 140201Z 27007KT 11/M06 A2994 RMK A01 T01061058  RH  031%=      5-min Rain = 0
KEN1 140202Z 27007KT 11/M06 A2994 RMK A01 T01061059  RH  031%=      5-min Rain = 0
KEN1 140203Z 28007KT 11/M06 A2994 RMK A01 T01071058  RH  031%=      5-min Rain = 0
KEN1 140204Z 27007KT 11/M06 A2994 RMK A01 T01071058  RH  031%=      5-min Rain = 0
KEN1 140205Z 28007KT 11/M06 A2995 RMK A01 T01061058  RH  031%=      5-min Rain = 0
KEN1 140206Z 28007KT 11/M06 A2995 RMK A01 T01051058  RH  031%=      5-min Rain = 0
KEN1 140207Z 28007KT 10/M06 A2995 RMK A01 T01031057  RH  032%=      5-min Rain = 0
KEN1 140208Z 28006KT 10/M06 A2995 RMK A01 T01011057  RH  032%=      5-min Rain = 0
KEN1 140209Z 29007KT 10/M06 A2996 RMK A01 T00991057  RH  033%=      5-min Rain = 0
KEN1 140210Z 28007KT 10/M06 A2996 RMK A01 T00971056  RH  033%=      5-min Rain = 0
KEN1 140211Z 28007KT 10/M06 A2996 RMK A01 T00951056  RH  034%=      5-min Rain = 0
KEN1 140212Z 28008KT 09/M06 A2996 RMK A01 T00941055  RH  035%=      5-min Rain = 0
KEN1 140213Z 28007KT 09/M05 A2996 RMK A01 T00921054  RH  035%=      5-min Rain = 0
KEN1 140214Z 29007KT 09/M05 A2996 RMK A01 T00911053  RH  036%=      5-min Rain = 0
KEN1 140215Z 29008KT 09/M05 A2996 RMK A01 T00891054  RH  036%=      5-min Rain = 0
KEN1 140216Z 29008KT 09/M05 A2996 RMK A01 T00901053  RH  036%=      5-min Rain = 0
KEN1 140217Z 29009KT 09/M05 A2996 RMK A01 T00921053  RH  035%=      5-min Rain = 0
KEN1 140218Z 29009KT 10/M05 A2996 RMK A01 T00951052  RH  035%=      5-min Rain = 0
KEN1 140219Z 29009KT 10/M05 A2996 RMK A01 T00961053  RH  034%=      5-min Rain = 0
KEN1 140220Z 29009KT 10/M05 A2996 RMK A01 T00971053  RH  034%=      5-min Rain = 0
KEN1 140221Z 29009KT 10/M05 A2996 RMK A01 T00981054  RH  034%=      5-min Rain = 0
KEN1 140222Z 29009KT 10/M05 A2996 RMK A01 T01001054  RH  033%=      5-min Rain = 0
KEN1 140223Z 29009KT 10/M05 A2996 RMK A01 T01011054  RH  033%=      5-min Rain = 0
KEN1 140224Z 29010KT 10/M05 A2996 RMK A01 T01011054  RH  033%=      5-min Rain = 0
KEN1 140225Z 29009KT 10/M06 A2996 RMK A01 T01011055  RH  033%=      5-min Rain = 0
KEN1 140226Z 29008KT 10/M06 A2996 RMK A01 T01021055  RH  033%=      5-min Rain = 0
KEN1 140227Z 29009KT 10/M06 A2996 RMK A01 T01021055  RH  033%=      5-min Rain = 0
KEN1 140228Z 29009KT 10/M06 A2997 RMK A01 T01011055  RH  033%=      5-min Rain = 0
KEN1 140229Z 29009KT 10/M06 A2997 RMK A01 T01001055  RH  033%=      5-min Rain = 0
KEN1 140230Z 29009KT 10/M05 A2997 RMK A01 T01001054  RH  033%=      5-min Rain = 0
KEN1 140231Z 29009KT 10/M05 A2997 RMK A01 T00991054  RH  033%=      5-min Rain = 0
KEN1 140232Z 29009KT 10/M05 A2997 RMK A01 T00981054  RH  034%=      5-min Rain = 0
KEN1 140233Z 29008KT 10/M05 A2997 RMK A01 T00981054  RH  034%=      5-min Rain = 0
KEN1 140234Z 29008KT 10/M05 A2996 RMK A01 T00981054  RH  034%=      5-min Rain = 0
KEN1 140235Z 29007KT 10/M05 A2996 RMK A01 T00971054  RH  034%=      5-min Rain = 0
KEN1 140236Z 29007KT 10/M05 A2996 RMK A01 T00961054  RH  034%=      5-min Rain = 0
KEN1 140237Z 29008KT 10/M06 A2996 RMK A01 T00961055  RH  034%=      5-min Rain = 0
KEN1 140238Z 29008KT 10/M06 A2996 RMK A01 T00951055  RH  034%=      5-min Rain = 0
KEN1 140239Z 29008KT 09/M06 A2996 RMK A01 T00941055  RH  035%=      5-min Rain = 0
KEN1 140240Z 29008KT 09/M06 A2996 RMK A01 T00931055  RH  035%=      5-min Rain = 0
KEN1 140241Z 30007KT 09/M06 A2996 RMK A01 T00931055  RH  035%=      5-min Rain = 0
KEN1 140242Z 30007KT 09/M06 A2996 RMK A01 T00921055  RH  035%=      5-min Rain = 0
KEN1 140243Z 30007KT 09/M06 A2996 RMK A01 T00921055  RH  035%=      5-min Rain = 0
KEN1 140244Z 30007KT 09/M06 A2996 RMK A01 T00911055  RH  035%=      5-min Rain = 0
KEN1 140245Z 31006KT 09/M06 A2996 RMK A01 T00911056  RH  035%=      5-min Rain = 0
KEN1 140246Z 31007KT 09/M06 A2996 RMK A01 T00921056  RH  035%=      5-min Rain = 0
KEN1 140247Z 30007KT 09/M06 A2996 RMK A01 T00931055  RH  035%=      5-min Rain = 0
KEN1 140248Z 30007KT 09/M06 A2996 RMK A01 T00921055  RH  035%=      5-min Rain = 0
KEN1 140249Z 30007KT 09/M06 A2996 RMK A01 T00911055  RH  035%=      5-min Rain = 0
KEN1 140250Z 30007KT 09/M06 A2996 RMK A01 T00911055  RH  035%=      5-min Rain = 0
KEN1 140251Z 30007KT 09/M05 A2996 RMK A01 T00911054  RH  035%=      5-min Rain = 0
KEN1 140252Z 30007KT 09/M05 A2996 RMK A01 T00891054  RH  036%=      5-min Rain = 0
KEN1 140253Z 30007KT 09/M05 A2996 RMK A01 T00891054  RH  036%=      5-min Rain = 0
KEN1 140254Z 29007KT 09/M05 A2996 RMK A01 T00891054  RH  036%=      5-min Rain = 0
KEN1 140255Z 30007KT 09/M05 A2996 RMK A01 T00891054  RH  036%=      5-min Rain = 0
KEN1 140256Z 29007KT 09/M05 A2996 RMK A01 T00901053  RH  036%=      5-min Rain = 0
KEN1 140257Z 29007KT 09/M05 A2996 RMK A01 T00901054  RH  036%=      5-min Rain = 0
KEN1 140258Z 29006KT 09/M05 A2996 RMK A01 T00901054  RH  036%=      5-min Rain = 0
KEN1 140259Z 29006KT 09/M05 A2996 RMK A01 T00901054  RH  036%=      5-min Rain = 0
KEN1 140300Z 28005KT 09/M05 A2996 RMK A01 T00901054  RH  036%=      5-min Rain = 0
KEN1 140301Z 28006KT 09/M06 A2996 RMK A01 T00891055  RH  036%=      5-min Rain = 0
KEN1 140302Z 28006KT 09/M06 A2996 RMK A01 T00881056  RH  036%=      5-min Rain = 0
KEN1 140303Z 28006KT 09/M06 A2996 RMK A01 T00871056  RH  036%=      5-min Rain = 0
KEN1 140304Z 28005KT 09/M06 A2996 RMK A01 T00861056  RH  036%=      5-min Rain = 0
KEN1 140305Z 28005KT 08/M06 A2996 RMK A01 T00841057  RH  036%=      5-min Rain = 0
KEN1 140306Z 28005KT 08/M06 A2995 RMK A01 T00821058  RH  036%=      5-min Rain = 0
KEN1 140307Z 28005KT 08/M06 A2995 RMK A01 T00811058  RH  037%=      5-min Rain = 0
KEN1 140308Z 28005KT 08/M06 A2995 RMK A01 T00791058  RH  037%=      5-min Rain = 0
KEN1 140309Z 28004KT 08/M06 A2995 RMK A01 T00781058  RH  037%=      5-min Rain = 0
KEN1 140310Z 28004KT 08/M06 A2996 RMK A01 T00781058  RH  038%=      5-min Rain = 0
KEN1 140311Z 28004KT 08/M06 A2996 RMK A01 T00781057  RH  038%=      5-min Rain = 0
KEN1 140312Z 28004KT 08/M06 A2996 RMK A01 T00771058  RH  038%=      5-min Rain = 0
KEN1 140313Z 28004KT 08/M06 A2996 RMK A01 T00771057  RH  038%=      5-min Rain = 0
KEN1 140314Z 28004KT 08/M06 A2996 RMK A01 T00761058  RH  038%=      5-min Rain = 0
KEN1 140315Z 27004KT 08/M06 A2996 RMK A01 T00761057  RH  038%=      5-min Rain = 0
KEN1 140316Z 27004KT 07/M06 A2996 RMK A01 T00741058  RH  038%=      5-min Rain = 0
KEN1 140317Z 28003KT 07/M06 A2996 RMK A01 T00721058  RH  039%=      5-min Rain = 0
KEN1 140318Z 27003KT 07/M06 A2996 RMK A01 T00701059  RH  039%=      5-min Rain = 0
KEN1 140319Z 27003KT 07/M06 A2996 RMK A01 T00691058  RH  040%=      5-min Rain = 0
KEN1 140320Z 27002KT 07/M06 A2996 RMK A01 T00681057  RH  041%=      5-min Rain = 0
KEN1 140321Z 27002KT 07/M06 A2995 RMK A01 T00671057  RH  041%=      5-min Rain = 0
KEN1 140322Z 29002KT 07/M06 A2995 RMK A01 T00661056  RH  041%=      5-min Rain = 0
KEN1 140323Z 29002KT 07/M06 A2995 RMK A01 T00651055  RH  042%=      5-min Rain = 0
KEN1 140324Z 32002KT 06/M06 A2995 RMK A01 T00641056  RH  042%=      5-min Rain = 0
KEN1 140325Z 32003KT 06/M06 A2995 RMK A01 T00641056  RH  042%=      5-min Rain = 0
KEN1 140326Z 32003KT 06/M06 A2995 RMK A01 T00641057  RH  042%=      5-min Rain = 0
KEN1 140327Z 32004KT 07/M06 A2995 RMK A01 T00651056  RH  042%=      5-min Rain = 0
KEN1 140328Z 31005KT 07/M06 A2995 RMK A01 T00661055  RH  042%=      5-min Rain = 0
KEN1 140329Z 31006KT 07/M05 A2995 RMK A01 T00681052  RH  042%=      5-min Rain = 0
KEN1 140330Z 32007KT 07/M05 A2995 RMK A01 T00721049  RH  042%=      5-min Rain = 0
KEN1 140331Z 32006KT 08/M05 A2995 RMK A01 T00781045  RH  042%=      5-min Rain = 0
KEN1 140332Z 33006KT 08/M05 A2995 RMK A01 T00831045  RH  040%=      5-min Rain = 0
KEN1 140333Z 35006KT 09/M05 A2996 RMK A01 T00861046  RH  039%=      5-min Rain = 0
KEN1 140334Z 04008KT 09/M05 A2996 RMK A01 T00881047  RH  038%=      5-min Rain = 0
KEN1 140335Z 06008KT 08/M05 A2995 RMK A01 T00831052  RH  038%=      5-min Rain = 0
KEN1 140336Z 05008KT 08/M05 A2995 RMK A01 T00771053  RH  039%=      5-min Rain = 0
KEN1 140337Z 04006KT 07/M05 A2995 RMK A01 T00741053  RH  040%=      5-min Rain = 0
KEN1 140338Z 02005KT 07/M05 A2995 RMK A01 T00731053  RH  040%=      5-min Rain = 0
KEN1 140339Z 01010G17KT 08/M05 A2995 RMK A01 T00771050  RH  040%=      5-min Rain = 0
KEN1 140340Z 02011KT 09/M05 A2995 RMK A01 T00881047  RH  038%=      5-min Rain = 0
KEN1 140341Z 02010KT 10/M05 A2995 RMK A01 T00951048  RH  036%=      5-min Rain = 0
KEN1 140342Z 02011KT 10/M05 A2995 RMK A01 T00971048  RH  035%=      5-min Rain = 0
KEN1 140343Z 02009KT 10/M05 A2995 RMK A01 T00971050  RH  035%=      5-min Rain = 0
KEN1 140344Z 03008KT 10/M05 A2995 RMK A01 T00951051  RH  035%=      5-min Rain = 0
KEN1 140345Z 04010KT 09/M05 A2995 RMK A01 T00911053  RH  036%=      5-min Rain = 0
KEN1 140346Z 04009KT 09/M05 A2995 RMK A01 T00861054  RH  037%=      5-min Rain = 0
KEN1 140347Z 04009KT 08/M05 A2995 RMK A01 T00811054  RH  038%=      5-min Rain = 0
KEN1 140348Z 04009KT 08/M06 A2995 RMK A01 T00771055  RH  039%=      5-min Rain = 0
KEN1 140349Z 04010KT 07/M06 A2995 RMK A01 T00731055  RH  040%=      5-min Rain = 0
KEN1 140350Z 03009KT 07/M06 A2995 RMK A01 T00701055  RH  040%=      5-min Rain = 0
KEN1 140351Z 03009KT 07/M06 A2996 RMK A01 T00691055  RH  041%=      5-min Rain = 0
KEN1 140352Z 03010KT 07/M06 A2995 RMK A01 T00671055  RH  041%=      5-min Rain = 0
KEN1 140353Z 03009KT 07/M06 A2995 RMK A01 T00671055  RH  042%=      5-min Rain = 0
KEN1 140354Z 03009KT 07/M06 A2995 RMK A01 T00661055  RH  042%=      5-min Rain = 0
KEN1 140355Z 03010KT 07/M06 A2996 RMK A01 T00651055  RH  042%=      5-min Rain = 0
KEN1 140356Z 03011KT 06/M06 A2996 RMK A01 T00621056  RH  042%=      5-min Rain = 0
KEN1 140357Z 03011KT 06/M06 A2996 RMK A01 T00601056  RH  043%=      5-min Rain = 0
KEN1 140358Z 03010KT 06/M06 A2996 RMK A01 T00581056  RH  044%=      5-min Rain = 0
KEN1 140359Z 03010KT 06/M06 A2996 RMK A01 T00561057  RH  044%=      5-min Rain = 0
KEN1 140400Z 03009KT 06/M06 A2996 RMK A01 T00551057  RH  044%=      5-min Rain = 0
KEN1 140401Z 03009KT 05/M06 A2996 RMK A01 T00541057  RH  045%=      5-min Rain = 0
KEN1 140402Z 03010KT 05/M06 A2995 RMK A01 T00541057  RH  045%=      5-min Rain = 0
KEN1 140403Z 03011KT 05/M06 A2995 RMK A01 T00541057  RH  045%=      5-min Rain = 0
KEN1 140404Z 03010KT 06/M06 A2995 RMK A01 T00551057  RH  044%=      5-min Rain = 0
KEN1 140405Z 02010KT 06/M06 A2995 RMK A01 T00571057  RH  044%=      5-min Rain = 0
KEN1 140406Z 02009KT 06/M06 A2995 RMK A01 T00591057  RH  043%=      5-min Rain = 0
KEN1 140407Z 02010KT 06/M06 A2995 RMK A01 T00601057  RH  043%=      5-min Rain = 0
KEN1 140408Z 02010KT 06/M06 A2995 RMK A01 T00611058  RH  042%=      5-min Rain = 0
KEN1 140409Z 01008KT 06/M06 A2995 RMK A01 T00641057  RH  042%=      5-min Rain = 0
KEN1 140410Z 01008KT 07/M06 A2995 RMK A01 T00651058  RH  041%=      5-min Rain = 0
KEN1 140411Z 02008KT 07/M06 A2995 RMK A01 T00651058  RH  041%=      5-min Rain = 0
KEN1 140412Z 01008KT 06/M06 A2995 RMK A01 T00641059  RH  041%=      5-min Rain = 0
KEN1 140413Z 01008KT 06/M06 A2995 RMK A01 T00641058  RH  041%=      5-min Rain = 0
KEN1 140414Z 02007KT 07/M06 A2995 RMK A01 T00661057  RH  041%=      5-min Rain = 0
KEN1 140415Z 02007KT 07/M06 A2995 RMK A01 T00671057  RH  041%=      5-min Rain = 0
KEN1 140416Z 01006KT 07/M06 A2995 RMK A01 T00671057  RH  041%=      5-min Rain = 0
KEN1 140417Z 01006KT 07/M06 A2995 RMK A01 T00681057  RH  041%=      5-min Rain = 0
KEN1 140418Z 01006KT 07/M06 A2995 RMK A01 T00681057  RH  040%=      5-min Rain = 0
KEN1 140419Z 01006KT 07/M06 A2995 RMK A01 T00691057  RH  040%=      5-min Rain = 0
KEN1 140420Z 01006KT 07/M06 A2995 RMK A01 T00711056  RH  040%=      5-min Rain = 0
KEN1 140421Z 01006KT 07/M06 A2995 RMK A01 T00711056  RH  040%=      5-min Rain = 0
KEN1 140422Z 02006KT 07/M06 A2995 RMK A01 T00711057  RH  040%=      5-min Rain = 0
KEN1 140423Z 02006KT 07/M06 A2995 RMK A01 T00711056  RH  040%=      5-min Rain = 0
KEN1 140424Z 02007KT 07/M06 A2995 RMK A01 T00711056  RH  040%=      5-min Rain = 0
KEN1 140425Z 01006KT 07/M06 A2996 RMK A01 T00711055  RH  040%=      5-min Rain = 0
KEN1 140426Z 01006KT 07/M05 A2996 RMK A01 T00721054  RH  040%=      5-min Rain = 0
KEN1 140427Z 00006KT 07/M05 A2996 RMK A01 T00711054  RH  040%=      5-min Rain = 0
KEN1 140428Z 00005KT 07/M05 A2996 RMK A01 T00721053  RH  041%=      5-min Rain = 0
KEN1 140429Z 35005KT 07/M05 A2997 RMK A01 T00711052  RH  041%=      5-min Rain = 0
KEN1 140430Z 33004KT 07/M05 A2997 RMK A01 T00711051  RH  042%=      5-min Rain = 0
KEN1 140431Z 31003KT 07/M05 A2997 RMK A01 T00701049  RH  042%=      5-min Rain = 0
KEN1 140432Z 26003KT 07/M05 A2997 RMK A01 T00691046  RH  044%=      5-min Rain = 0
KEN1 140433Z 25003KT 07/M05 A2997 RMK A01 T00661047  RH  044%=      5-min Rain = 0
KEN1 140434Z 24004KT 06/M05 A2997 RMK A01 T00621048  RH  045%=      5-min Rain = 0
KEN1 140435Z 24005KT 06/M05 A2997 RMK A01 T00591047  RH  047%=      5-min Rain = 0
KEN1 140436Z 23005KT 06/M05 A2997 RMK A01 T00561047  RH  048%=      5-min Rain = 0
KEN1 140437Z 22005KT 06/M05 A2997 RMK A01 T00551048  RH  048%=      5-min Rain = 0
KEN1 140438Z 22005KT 06/M05 A2997 RMK A01 T00571048  RH  047%=      5-min Rain = 0
KEN1 140439Z 22004KT 06/M05 A2997 RMK A01 T00591048  RH  046%=      5-min Rain = 0
KEN1 140440Z 23003KT 06/M05 A2997 RMK A01 T00601048  RH  046%=      5-min Rain = 0
KEN1 140441Z 22004KT 06/M05 A2997 RMK A01 T00591048  RH  046%=      5-min Rain = 0
KEN1 140442Z 21004KT 06/M05 A2996 RMK A01 T00591047  RH  046%=      5-min Rain = 0
KEN1 140443Z 21002KT 06/M05 A2997 RMK A01 T00591049  RH  046%=      5-min Rain = 0
KEN1 140444Z 22003KT 06/M05 A2997 RMK A01 T00601049  RH  045%=      5-min Rain = 0
KEN1 140445Z 22003KT 06/M05 A2997 RMK A01 T00601048  RH  046%=      5-min Rain = 0
KEN1 140446Z 24003KT 06/M05 A2997 RMK A01 T00591048  RH  046%=      5-min Rain = 0
KEN1 140447Z 24003KT 06/M05 A2997 RMK A01 T00581048  RH  046%=      5-min Rain = 0
KEN1 140448Z 25003KT 06/M05 A2997 RMK A01 T00561047  RH  047%=      5-min Rain = 0
KEN1 140449Z 26003KT 05/M05 A2997 RMK A01 T00541048  RH  048%=      5-min Rain = 0
KEN1 140450Z 25004KT 05/M05 A2997 RMK A01 T00521049  RH  048%=      5-min Rain = 0
KEN1 140451Z 26004KT 05/M05 A2997 RMK A01 T00521049  RH  048%=      5-min Rain = 0
KEN1 140452Z 26005KT 05/M05 A2997 RMK A01 T00501050  RH  048%=      5-min Rain = 0
KEN1 140453Z 25006KT 05/M05 A2997 RMK A01 T00491049  RH  049%=      5-min Rain = 0
KEN1 140454Z 24006KT 05/M05 A2997 RMK A01 T00481048  RH  050%=      5-min Rain = 0
KEN1 140455Z 24006KT 05/M05 A2997 RMK A01 T00471047  RH  050%=      5-min Rain = 0
KEN1 140456Z 24005KT 05/M05 A2998 RMK A01 T00481046  RH  051%=      5-min Rain = 0
KEN1 140457Z 24005KT 05/M05 A2998 RMK A01 T00481047  RH  051%=      5-min Rain = 0
KEN1 140458Z 25004KT 05/M05 A2998 RMK A01 T00481046  RH  051%=      5-min Rain = 0
KEN1 140459Z 26004KT 05/M05 A2998 RMK A01 T00481046  RH  051%=      5-min Rain = 0
KEN1 140500Z 26004KT 05/M05 A2998 RMK A01 T00481047  RH  050%=      5-min Rain = 0
KEN1 140501Z 27003KT 05/M05 A2998 RMK A01 T00481046  RH  050%=      5-min Rain = 0
KEN1 140502Z 29003KT 05/M05 A2998 RMK A01 T00481047  RH  050%=      5-min Rain = 0
KEN1 140503Z 29004KT 05/M05 A2998 RMK A01 T00491047  RH  050%=      5-min Rain = 0
KEN1 140504Z 29003KT 05/M05 A2998 RMK A01 T00521047  RH  049%=      5-min Rain = 0
KEN1 140505Z 31003KT 05/M05 A2998 RMK A01 T00521046  RH  049%=      5-min Rain = 0
KEN1 140506Z 31004KT 05/M05 A2998 RMK A01 T00501047  RH  049%=      5-min Rain = 0
KEN1 140507Z 31004KT 05/M05 A2998 RMK A01 T00511048  RH  049%=      5-min Rain = 0
KEN1 140508Z 31004KT 05/M05 A2998 RMK A01 T00501047  RH  049%=      5-min Rain = 0
KEN1 140509Z 30004KT 05/M05 A2998 RMK A01 T00501047  RH  049%=      5-min Rain = 0
KEN1 140510Z 29005KT 05/M05 A2998 RMK A01 T00501048  RH  049%=      5-min Rain = 0
KEN1 140511Z 30004KT 05/M05 A2998 RMK A01 T00511048  RH  048%=      5-min Rain = 0
KEN1 140512Z 28004KT 05/M05 A2998 RMK A01 T00541048  RH  048%=      5-min Rain = 0
KEN1 140513Z 28004KT 06/M05 A2998 RMK A01 T00551049  RH  047%=      5-min Rain = 0
KEN1 140514Z 29004KT 06/M05 A2998 RMK A01 T00551048  RH  047%=      5-min Rain = 0
KEN1 140515Z 30005KT 05/M05 A2998 RMK A01 T00531049  RH  047%=      5-min Rain = 0
KEN1 140516Z 30002KT 05/M05 A2998 RMK A01 T00521049  RH  048%=      5-min Rain = 0
KEN1 140517Z 30003KT 05/M05 A2998 RMK A01 T00491050  RH  049%=      5-min Rain = 0
KEN1 140518Z 30004KT 05/M05 A2998 RMK A01 T00481050  RH  049%=      5-min Rain = 0
KEN1 140519Z 29004KT 05/M05 A2998 RMK A01 T00481050  RH  049%=      5-min Rain = 0
KEN1 140520Z 29004KT 05/M05 A2998 RMK A01 T00491050  RH  049%=      5-min Rain = 0
KEN1 140521Z 29004KT 05/M05 A2998 RMK A01 T00511050  RH  048%=      5-min Rain = 0
KEN1 140522Z 29004KT 05/M05 A2998 RMK A01 T00511050  RH  048%=      5-min Rain = 0
KEN1 140523Z 30004KT 05/M05 A2999 RMK A01 T00511050  RH  048%=      5-min Rain = 0
KEN1 140524Z 30003KT 05/M05 A2999 RMK A01 T00511050  RH  048%=      5-min Rain = 0
KEN1 140525Z 32003KT 05/M05 A2998 RMK A01 T00501051  RH  048%=      5-min Rain = 0
KEN1 140526Z 32004KT 05/M05 A2998 RMK A01 T00511051  RH  048%=      5-min Rain = 0
KEN1 140527Z 33004KT 05/M05 A2998 RMK A01 T00531051  RH  047%=      5-min Rain = 0
KEN1 140528Z 33004KT 05/M05 A2998 RMK A01 T00541051  RH  047%=      5-min Rain = 0
KEN1 140529Z 34004KT 06/M05 A2998 RMK A01 T00551052  RH  046%=      5-min Rain = 0
KEN1 140530Z 33004KT 06/M05 A2998 RMK A01 T00581052  RH  045%=      5-min Rain = 0
KEN1 140531Z 35004KT 06/M05 A2998 RMK A01 T00601052  RH  044%=      5-min Rain = 0
KEN1 140532Z 36003KT 06/M05 A2998 RMK A01 T00611053  RH  044%=      5-min Rain = 0
KEN1 140533Z 36002KT 06/M06 A2998 RMK A01 T00571055  RH  044%=      5-min Rain = 0
KEN1 140534Z 01002KT 06/M06 A2998 RMK A01 T00551055  RH  045%=      5-min Rain = 0
KEN1 140535Z 01002KT 06/M06 A2997 RMK A01 T00551056  RH  045%=      5-min Rain = 0
KEN1 140536Z 02003KT 06/M06 A2997 RMK A01 T00561056  RH  045%=      5-min Rain = 0
KEN1 140537Z 01004KT 06/M05 A2997 RMK A01 T00611054  RH  044%=      5-min Rain = 0
KEN1 140538Z 02004KT 06/M05 A2997 RMK A01 T00631054  RH  043%=      5-min Rain = 0
KEN1 140539Z 02004KT 06/M06 A2997 RMK A01 T00611056  RH  043%=      5-min Rain = 0
KEN1 140540Z 00004KT 06/M06 A2997 RMK A01 T00611055  RH  043%=      5-min Rain = 0
KEN1 140541Z 35005KT 06/M06 A2997 RMK A01 T00611055  RH  043%=      5-min Rain = 0
KEN1 140542Z 35006KT 06/M06 A2997 RMK A01 T00551059  RH  044%=      5-min Rain = 0
KEN1 140543Z 00006KT 05/M06 A2997 RMK A01 T00471062  RH  045%=      5-min Rain = 0
KEN1 140544Z 36006KT 04/M06 A2997 RMK A01 T00411061  RH  047%=      5-min Rain = 0
KEN1 140545Z 35006KT 04/M06 A2997 RMK A01 T00371060  RH  049%=      5-min Rain = 0
KEN1 140546Z 35006KT 03/M06 A2997 RMK A01 T00331059  RH  051%=      5-min Rain = 0
KEN1 140547Z 35006KT 03/M06 A2997 RMK A01 T00321057  RH  052%=      5-min Rain = 0
KEN1 140548Z 35006KT 03/M06 A2997 RMK A01 T00311056  RH  053%=      5-min Rain = 0
KEN1 140549Z 34007KT 03/M06 A2997 RMK A01 T00281059  RH  053%=      5-min Rain = 0
KEN1 140550Z 35007KT 02/M06 A2997 RMK A01 T00241061  RH  054%=      5-min Rain = 0
KEN1 140551Z 36006KT 02/M06 A2997 RMK A01 T00221060  RH  055%=      5-min Rain = 0
KEN1 140552Z 00006KT 02/M06 A2997 RMK A01 T00201059  RH  056%=      5-min Rain = 0
KEN1 140553Z 00007KT 02/M06 A2997 RMK A01 T00211057  RH  056%=      5-min Rain = 0
KEN1 140554Z 00007KT 02/M06 A2997 RMK A01 T00231056  RH  056%=      5-min Rain = 0
KEN1 140555Z 01007KT 03/M06 A2997 RMK A01 T00261055  RH  055%=      5-min Rain = 0
KEN1 140556Z 01008KT 03/M05 A2997 RMK A01 T00291054  RH  054%=      5-min Rain = 0
KEN1 140557Z 01009KT 03/M05 A2997 RMK A01 T00311054  RH  054%=      5-min Rain = 0
KEN1 140558Z 01008KT 03/M06 A2997 RMK A01 T00301055  RH  054%=      5-min Rain = 0
KEN1 140559Z 01008KT 03/M05 A2997 RMK A01 T00291054  RH  054%=      5-min Rain = 0

Page generated in 0.0649 seconds.